Observation data for Guadalupe Mtns Park on 01/11/2018      Previous  Date  Next       Current Mesonet Observations  Soil Data  Daily Summary Page  Observations in Plain Language
KGU1 110600Z 28039G49KT 05/M01 A2976 RMK A01 T00531007  RH  066%=      5-min Rain = 0
KGU1 110601Z 28040G52KT 05/M01 A2975 RMK A01 T00531008  RH  066%=      5-min Rain = 0
KGU1 110602Z 28039G49KT 05/M01 A2975 RMK A01 T00531008  RH  065%=      5-min Rain = 0
KGU1 110603Z 28042G53KT 05/M01 A2976 RMK A01 T00531008  RH  065%=      5-min Rain = 0
KGU1 110604Z 28037G44KT 05/M01 A2975 RMK A01 T00531008  RH  065%=      5-min Rain = 0
KGU1 110605Z 29040G52KT 05/M01 A2976 RMK A01 T00541008  RH  065%=      5-min Rain = 0
KGU1 110606Z 28043G50KT 05/M01 A2976 RMK A01 T00541008  RH  065%=      5-min Rain = 0
KGU1 110607Z 28038G47KT 05/M01 A2975 RMK A01 T00541008  RH  065%=      5-min Rain = 0
KGU1 110608Z 27038G46KT 05/M01 A2975 RMK A01 T00531008  RH  065%=      5-min Rain = 0
KGU1 110609Z 28041G49KT 05/M01 A2976 RMK A01 T00541008  RH  065%=      5-min Rain = 0
KGU1 110610Z 28037G45KT 05/M01 A2976 RMK A01 T00531007  RH  066%=      5-min Rain = 0
KGU1 110611Z 29042G53KT 05/M01 A2976 RMK A01 T00531007  RH  066%=      5-min Rain = 0
KGU1 110612Z 28039G55KT 05/M01 A2976 RMK A01 T00531007  RH  066%=      5-min Rain = 0
KGU1 110613Z 28038G50KT 05/M01 A2976 RMK A01 T00531007  RH  066%=      5-min Rain = 0
KGU1 110614Z 28034G43KT 05/M01 A2976 RMK A01 T00531007  RH  066%=      5-min Rain = 0
KGU1 110615Z 28042G62KT 05/M01 A2976 RMK A01 T00531007  RH  066%=      5-min Rain = 0
KGU1 110616Z 28036G43KT 05/M01 A2976 RMK A01 T00531007  RH  066%=      5-min Rain = 0
KGU1 110617Z 28035G40KT 05/M01 A2976 RMK A01 T00531007  RH  066%=      5-min Rain = 0
KGU1 110618Z 28034G49KT 05/M01 A2976 RMK A01 T00531007  RH  066%=      5-min Rain = 0
KGU1 110619Z 28042G50KT 05/M01 A2976 RMK A01 T00531008  RH  066%=      5-min Rain = 0
KGU1 110620Z 28042G47KT 05/M01 A2976 RMK A01 T00531007  RH  066%=      5-min Rain = 0
KGU1 110621Z 28036G44KT 05/M01 A2976 RMK A01 T00531007  RH  066%=      5-min Rain = 0
KGU1 110622Z 27032G51KT 05/M01 A2975 RMK A01 T00531007  RH  066%=      5-min Rain = 0
KGU1 110623Z 28038G49KT 05/M01 A2975 RMK A01 T00531007  RH  066%=      5-min Rain = 0
KGU1 110624Z 28034KT 05/M01 A2976 RMK A01 T00531007  RH  066%=      5-min Rain = 0
KGU1 110625Z 28037G46KT 05/M01 A2976 RMK A01 T00531007  RH  066%=      5-min Rain = 0
KGU1 110626Z 28042G52KT 05/M01 A2976 RMK A01 T00531007  RH  066%=      5-min Rain = 0
KGU1 110627Z 28032G44KT 05/M01 A2976 RMK A01 T00531007  RH  066%=      5-min Rain = 0
KGU1 110628Z 28032G38KT 05/M01 A2976 RMK A01 T00521006  RH  067%=      5-min Rain = 0
KGU1 110629Z 28034G50KT 05/M01 A2976 RMK A01 T00521006  RH  067%=      5-min Rain = 0
KGU1 110630Z 27038G46KT 05/M01 A2975 RMK A01 T00521007  RH  067%=      5-min Rain = 0
KGU1 110631Z 27037G46KT 05/M01 A2975 RMK A01 T00521007  RH  067%=      5-min Rain = 0
KGU1 110632Z 27040G45KT 05/M01 A2976 RMK A01 T00521007  RH  067%=      5-min Rain = 0
KGU1 110633Z 28037G56KT 05/M01 A2976 RMK A01 T00521006  RH  067%=      5-min Rain = 0
KGU1 110634Z 28042G48KT 05/M01 A2977 RMK A01 T00521006  RH  067%=      5-min Rain = 0
KGU1 110635Z 29035G42KT 05/M01 A2977 RMK A01 T00511005  RH  067%=      5-min Rain = 0
KGU1 110636Z 27033G45KT 05/M01 A2976 RMK A01 T00511006  RH  068%=      5-min Rain = 0
KGU1 110637Z 27035G47KT 05/M01 A2976 RMK A01 T00511006  RH  068%=      5-min Rain = 0
KGU1 110638Z 28039G49KT 05/M01 A2977 RMK A01 T00511006  RH  068%=      5-min Rain = 0
KGU1 110639Z 29033G45KT 05/M01 A2977 RMK A01 T00511005  RH  068%=      5-min Rain = 0
KGU1 110640Z 28033G38KT 05/M01 A2977 RMK A01 T00511005  RH  068%=      5-min Rain = 0
KGU1 110641Z 27031G47KT 05/M01 A2976 RMK A01 T00501005  RH  068%=      5-min Rain = 0
KGU1 110642Z 26034G44KT 05/M01 A2976 RMK A01 T00511005  RH  068%=      5-min Rain = 0
KGU1 110643Z 28035G47KT 05/M01 A2977 RMK A01 T00511005  RH  068%=      5-min Rain = 0
KGU1 110644Z 28037G45KT 05/M01 A2977 RMK A01 T00511005  RH  068%=      5-min Rain = 0
KGU1 110645Z 28042G50KT 05/M01 A2977 RMK A01 T00501005  RH  068%=      5-min Rain = 0
KGU1 110646Z 28039G54KT 05/M01 A2977 RMK A01 T00511005  RH  068%=      5-min Rain = 0
KGU1 110647Z 28038G46KT 05/M01 A2977 RMK A01 T00501005  RH  068%=      5-min Rain = 0
KGU1 110648Z 29037G53KT 05/M01 A2977 RMK A01 T00501005  RH  068%=      5-min Rain = 0
KGU1 110649Z 27032G39KT 05/M01 A2977 RMK A01 T00501005  RH  069%=      5-min Rain = 0
KGU1 110650Z 29036G57KT 05/M01 A2977 RMK A01 T00501005  RH  069%=      5-min Rain = 0
KGU1 110651Z 27041G54KT 05/M01 A2977 RMK A01 T00501005  RH  068%=      5-min Rain = 0
KGU1 110652Z 27034G46KT 05/M00 A2977 RMK A01 T00501004  RH  069%=      5-min Rain = 0
KGU1 110653Z 27033KT 05/M00 A2977 RMK A01 T00501004  RH  069%=      5-min Rain = 0
KGU1 110654Z 28036G41KT 05/M00 A2977 RMK A01 T00501004  RH  069%=      5-min Rain = 0
KGU1 110655Z 28039G51KT 05/M00 A2977 RMK A01 T00491004  RH  069%=      5-min Rain = 0
KGU1 110656Z 28036G43KT 05/M00 A2976 RMK A01 T00501004  RH  069%=      5-min Rain = 0
KGU1 110657Z 28033G40KT 05/M00 A2976 RMK A01 T00491004  RH  069%=      5-min Rain = 0
KGU1 110658Z 28034G43KT 05/M00 A2976 RMK A01 T00491004  RH  069%=      5-min Rain = 0
KGU1 110659Z 28035G43KT 05/M00 A2976 RMK A01 T00491004  RH  069%=      5-min Rain = 0
KGU1 110700Z 28035G48KT 05/M00 A2976 RMK A01 T00491004  RH  069%=      5-min Rain = 0
KGU1 110701Z 28035G41KT 05/M00 A2976 RMK A01 T00491004  RH  069%=      5-min Rain = 0
KGU1 110702Z 27033G39KT 05/M00 A2975 RMK A01 T00491004  RH  069%=      5-min Rain = 0
KGU1 110703Z 28033G41KT 05/M00 A2976 RMK A01 T00491004  RH  069%=      5-min Rain = 0
KGU1 110704Z 27030G39KT 05/M00 A2976 RMK A01 T00491004  RH  069%=      5-min Rain = 0
KGU1 110705Z 28035G46KT 05/M00 A2976 RMK A01 T00491004  RH  069%=      5-min Rain = 0
KGU1 110706Z 28033G42KT 05/M00 A2976 RMK A01 T00491004  RH  069%=      5-min Rain = 0
KGU1 110707Z 28033G45KT 05/M00 A2976 RMK A01 T00491004  RH  070%=      5-min Rain = 0
KGU1 110708Z 28034G40KT 05/M00 A2976 RMK A01 T00491004  RH  069%=      5-min Rain = 0
KGU1 110709Z 28033G40KT 05/M00 A2976 RMK A01 T00491004  RH  070%=      5-min Rain = 0
KGU1 110710Z 27034G43KT 05/M00 A2975 RMK A01 T00491003  RH  070%=      5-min Rain = 0
KGU1 110711Z 28039G47KT 05/M00 A2976 RMK A01 T00491004  RH  070%=      5-min Rain = 0
KGU1 110712Z 27035G42KT 05/M00 A2976 RMK A01 T00491003  RH  070%=      5-min Rain = 0
KGU1 110713Z 27038G45KT 05/M00 A2975 RMK A01 T00491003  RH  070%=      5-min Rain = 0
KGU1 110714Z 28035G46KT 05/M00 A2975 RMK A01 T00491003  RH  070%=      5-min Rain = 0
KGU1 110715Z 27037G44KT 05/M00 A2974 RMK A01 T00491003  RH  070%=      5-min Rain = 0
KGU1 110716Z 28032G44KT 05/M00 A2975 RMK A01 T00491003  RH  070%=      5-min Rain = 0
KGU1 110717Z 28040G53KT 05/M00 A2975 RMK A01 T00491003  RH  070%=      5-min Rain = 0
KGU1 110718Z 28034G45KT 05/M00 A2975 RMK A01 T00491003  RH  070%=      5-min Rain = 0
KGU1 110719Z 27038G44KT 05/M00 A2974 RMK A01 T00481003  RH  070%=      5-min Rain = 0
KGU1 110720Z 28037G43KT 05/M00 A2975 RMK A01 T00491003  RH  070%=      5-min Rain = 0
KGU1 110721Z 28037G45KT 05/M00 A2975 RMK A01 T00491003  RH  070%=      5-min Rain = 0
KGU1 110722Z 28037G42KT 05/M00 A2975 RMK A01 T00491003  RH  070%=      5-min Rain = 0
KGU1 110723Z 28040G47KT 05/M00 A2975 RMK A01 T00491003  RH  070%=      5-min Rain = 0
KGU1 110724Z 28033G43KT 05/M00 A2975 RMK A01 T00491003  RH  070%=      5-min Rain = 0
KGU1 110725Z 28034G42KT 05/M00 A2975 RMK A01 T00491003  RH  070%=      5-min Rain = 0
KGU1 110726Z 28043G54KT 05/M00 A2975 RMK A01 T00491003  RH  070%=      5-min Rain = 0
KGU1 110727Z 28040G52KT 05/M00 A2975 RMK A01 T00501004  RH  069%=      5-min Rain = 0
KGU1 110728Z 28036G44KT 05/M00 A2975 RMK A01 T00501004  RH  069%=      5-min Rain = 0
KGU1 110729Z 28040G48KT 05/M00 A2975 RMK A01 T00501004  RH  069%=      5-min Rain = 0
KGU1 110730Z 28045G53KT 05/M00 A2974 RMK A01 T00501004  RH  069%=      5-min Rain = 0
KGU1 110731Z 28041G50KT 05/M00 A2974 RMK A01 T00501003  RH  069%=      5-min Rain = 0
KGU1 110732Z 28042G49KT 05/M00 A2974 RMK A01 T00501004  RH  069%=      5-min Rain = 0
KGU1 110733Z 28041G50KT 05/M00 A2974 RMK A01 T00501003  RH  069%=      5-min Rain = 0
KGU1 110734Z 28039G51KT 05/M00 A2974 RMK A01 T00501004  RH  069%=      5-min Rain = 0
KGU1 110735Z 28037G43KT 05/M00 A2974 RMK A01 T00501004  RH  069%=      5-min Rain = 0
KGU1 110736Z 28040G47KT 05/M00 A2974 RMK A01 T00501004  RH  069%=      5-min Rain = 0
KGU1 110737Z 28041G47KT 05/M01 A2974 RMK A01 T00501005  RH  068%=      5-min Rain = 0
KGU1 110738Z 28041G51KT 05/M01 A2975 RMK A01 T00511005  RH  068%=      5-min Rain = 0
KGU1 110739Z 28039G49KT 05/M01 A2975 RMK A01 T00511005  RH  068%=      5-min Rain = 0
KGU1 110740Z 28038G44KT 05/M01 A2974 RMK A01 T00521005  RH  067%=      5-min Rain = 0
KGU1 110741Z 28040G47KT 05/M01 A2974 RMK A01 T00521005  RH  067%=      5-min Rain = 0
KGU1 110742Z 28042G54KT 05/M01 A2974 RMK A01 T00521005  RH  068%=      5-min Rain = 0
KGU1 110743Z 28045G56KT 05/M00 A2974 RMK A01 T00521004  RH  068%=      5-min Rain = 0
KGU1 110744Z 28038G45KT 05/M00 A2974 RMK A01 T00511004  RH  068%=      5-min Rain = 0
KGU1 110745Z 28039G48KT 05/M00 A2974 RMK A01 T00501004  RH  069%=      5-min Rain = 0
KGU1 110746Z 28039G45KT 05/M01 A2974 RMK A01 T00501005  RH  068%=      5-min Rain = 0
KGU1 110747Z 28035G42KT 05/M01 A2973 RMK A01 T00501005  RH  068%=      5-min Rain = 0
KGU1 110748Z 28037G46KT 05/M01 A2973 RMK A01 T00501005  RH  068%=      5-min Rain = 0
KGU1 110749Z 28038G49KT 05/M01 A2973 RMK A01 T00511006  RH  068%=      5-min Rain = 0
KGU1 110750Z 28038G45KT 05/M01 A2973 RMK A01 T00521007  RH  067%=      5-min Rain = 0
KGU1 110751Z 27034G39KT 05/M01 A2973 RMK A01 T00521005  RH  067%=      5-min Rain = 0
KGU1 110752Z 28038G47KT 05/M01 A2973 RMK A01 T00511005  RH  068%=      5-min Rain = 0
KGU1 110753Z 28037KT 05/M00 A2973 RMK A01 T00501004  RH  069%=      5-min Rain = 0
KGU1 110754Z 29038G48KT 05/M00 A2973 RMK A01 T00491004  RH  070%=      5-min Rain = 0
KGU1 110755Z 29040G48KT 05/M00 A2974 RMK A01 T00491004  RH  069%=      5-min Rain = 0
KGU1 110756Z 28034G44KT 05/M00 A2973 RMK A01 T00491004  RH  069%=      5-min Rain = 0
KGU1 110757Z 27036G48KT 05/M00 A2973 RMK A01 T00491004  RH  069%=      5-min Rain = 0
KGU1 110758Z 28032G39KT 05/M00 A2974 RMK A01 T00481004  RH  070%=      5-min Rain = 0
KGU1 110759Z 28034KT 05/M00 A2975 RMK A01 T00481004  RH  070%=      5-min Rain = 0
KGU1 110800Z 28035G46KT 05/M01 A2975 RMK A01 T00491005  RH  069%=      5-min Rain = 0
KGU1 110801Z 28041G51KT 05/M00 A2975 RMK A01 T00491004  RH  069%=      5-min Rain = 0
KGU1 110802Z 29037G42KT 05/M00 A2975 RMK A01 T00491003  RH  070%=      5-min Rain = 0
KGU1 110803Z 28035G43KT 05/M00 A2975 RMK A01 T00481003  RH  070%=      5-min Rain = 0
KGU1 110804Z 28029G34KT 05/M00 A2975 RMK A01 T00481003  RH  070%=      5-min Rain = 0
KGU1 110805Z 28034G43KT 05/M00 A2975 RMK A01 T00471003  RH  071%=      5-min Rain = 0
KGU1 110806Z 28030G38KT 05/M00 A2975 RMK A01 T00471003  RH  071%=      5-min Rain = 0
KGU1 110807Z 29033G44KT 05/M00 A2975 RMK A01 T00471003  RH  071%=      5-min Rain = 0
KGU1 110808Z 29031G37KT 05/M00 A2975 RMK A01 T00471003  RH  071%=      5-min Rain = 0
KGU1 110809Z 28035G45KT 05/M00 A2975 RMK A01 T00461003  RH  071%=      5-min Rain = 0
KGU1 110810Z 28034G40KT 05/M00 A2975 RMK A01 T00471003  RH  071%=      5-min Rain = 0
KGU1 110811Z 28034G40KT 05/M00 A2974 RMK A01 T00471003  RH  071%=      5-min Rain = 0
KGU1 110812Z 28032G41KT 05/M00 A2975 RMK A01 T00471003  RH  071%=      5-min Rain = 0
KGU1 110813Z 28033G40KT 05/M00 A2975 RMK A01 T00471003  RH  071%=      5-min Rain = 0
KGU1 110814Z 28036G45KT 05/M00 A2975 RMK A01 T00471004  RH  070%=      5-min Rain = 0
KGU1 110815Z 27034G43KT 05/M01 A2975 RMK A01 T00481006  RH  069%=      5-min Rain = 0
KGU1 110816Z 28034G41KT 05/M01 A2975 RMK A01 T00491005  RH  069%=      5-min Rain = 0
KGU1 110817Z 27026G35KT 05/M00 A2975 RMK A01 T00491004  RH  069%=      5-min Rain = 0
KGU1 110818Z 28034G39KT 05/M01 A2975 RMK A01 T00491005  RH  069%=      5-min Rain = 0
KGU1 110819Z 28038G48KT 05/M01 A2976 RMK A01 T00501007  RH  068%=      5-min Rain = 0
KGU1 110820Z 28038G47KT 05/M01 A2976 RMK A01 T00511006  RH  067%=      5-min Rain = 0
KGU1 110821Z 28028G36KT 05/M01 A2976 RMK A01 T00511006  RH  067%=      5-min Rain = 0
KGU1 110822Z 28029G39KT 05/M01 A2976 RMK A01 T00511006  RH  067%=      5-min Rain = 0
KGU1 110823Z 28028G38KT 05/M01 A2977 RMK A01 T00511006  RH  067%=      5-min Rain = 0
KGU1 110824Z 28033G39KT 05/M01 A2977 RMK A01 T00511006  RH  067%=      5-min Rain = 0
KGU1 110825Z 28035G45KT 05/M01 A2977 RMK A01 T00511006  RH  067%=      5-min Rain = 0
KGU1 110826Z 28031G37KT 05/M01 A2978 RMK A01 T00511006  RH  067%=      5-min Rain = 0
KGU1 110827Z 28029G36KT 05/M01 A2978 RMK A01 T00511006  RH  067%=      5-min Rain = 0
KGU1 110828Z 28032KT 05/M01 A2978 RMK A01 T00511006  RH  068%=      5-min Rain = 0
KGU1 110829Z 28030G36KT 05/M01 A2978 RMK A01 T00511006  RH  067%=      5-min Rain = 0
KGU1 110830Z 28027G35KT 05/M01 A2979 RMK A01 T00511006  RH  067%=      5-min Rain = 0
KGU1 110831Z 28026G36KT 05/M01 A2979 RMK A01 T00511006  RH  068%=      5-min Rain = 0
KGU1 110832Z 28032G41KT 05/M01 A2979 RMK A01 T00501005  RH  068%=      5-min Rain = 0
KGU1 110833Z 28027G32KT 05/M01 A2979 RMK A01 T00501005  RH  068%=      5-min Rain = 0
KGU1 110834Z 28022G32KT 05/M01 A2979 RMK A01 T00491005  RH  069%=      5-min Rain = 0
KGU1 110835Z 28026G34KT 05/M01 A2979 RMK A01 T00491005  RH  069%=      5-min Rain = 0
KGU1 110836Z 29024G29KT 05/M01 A298 RMK A01 T00491005  RH  069%=      5-min Rain = 0
KGU1 110837Z 28020G28KT 05/M01 A298 RMK A01 T00491005  RH  069%=      5-min Rain = 0
KGU1 110838Z 28025G32KT 05/M01 A298 RMK A01 T00491005  RH  069%=      5-min Rain = 0
KGU1 110839Z 28024G30KT 05/M01 A298 RMK A01 T00491005  RH  069%=      5-min Rain = 0
KGU1 110840Z 28028G34KT 05/M01 A298 RMK A01 T00491005  RH  069%=      5-min Rain = 0
KGU1 110841Z 28022G30KT 05/M01 A298 RMK A01 T00491005  RH  069%=      5-min Rain = 0
KGU1 110842Z 27019G25KT 05/M01 A298 RMK A01 T00491006  RH  069%=      5-min Rain = 0
KGU1 110843Z 28017G23KT 05/M01 A298 RMK A01 T00491005  RH  069%=      5-min Rain = 0
KGU1 110844Z 28024G32KT 05/M01 A2981 RMK A01 T00491005  RH  069%=      5-min Rain = 0
KGU1 110845Z 27024G32KT 05/M01 A2981 RMK A01 T00491005  RH  069%=      5-min Rain = 0
KGU1 110846Z 28025G30KT 05/M00 A2981 RMK A01 T00481004  RH  069%=      5-min Rain = 0
KGU1 110847Z 27023G28KT 05/M01 A2981 RMK A01 T00481005  RH  069%=      5-min Rain = 0
KGU1 110848Z 27024G30KT 05/M00 A2981 RMK A01 T00481004  RH  070%=      5-min Rain = 0
KGU1 110849Z 27024G30KT 05/M00 A2981 RMK A01 T00481004  RH  070%=      5-min Rain = 0
KGU1 110850Z 27022G32KT 05/M01 A2981 RMK A01 T00471005  RH  070%=      5-min Rain = 0
KGU1 110851Z 27025G30KT 05/M00 A2981 RMK A01 T00481004  RH  070%=      5-min Rain = 0
KGU1 110852Z 28024G31KT 05/M01 A2982 RMK A01 T00471005  RH  070%=      5-min Rain = 0
KGU1 110853Z 28022G28KT 05/M01 A2981 RMK A01 T00481005  RH  069%=      5-min Rain = 0
KGU1 110854Z 27018KT 05/M01 A2982 RMK A01 T00481005  RH  070%=      5-min Rain = 0
KGU1 110855Z 28026G32KT 05/M01 A2982 RMK A01 T00481005  RH  069%=      5-min Rain = 0
KGU1 110856Z 27022G28KT 05/M01 A2982 RMK A01 T00481006  RH  069%=      5-min Rain = 0
KGU1 110857Z 27025G34KT 05/M00 A2982 RMK A01 T00491004  RH  069%=      5-min Rain = 0
KGU1 110858Z 28025G33KT 05/M01 A2982 RMK A01 T00481005  RH  069%=      5-min Rain = 0
KGU1 110859Z 28021G27KT 05/M00 A2982 RMK A01 T00481004  RH  070%=      5-min Rain = 0
KGU1 110900Z 27025G31KT 05/M01 A2983 RMK A01 T00481005  RH  070%=      5-min Rain = 0
KGU1 110901Z 27020G30KT 05/M00 A2982 RMK A01 T00481004  RH  070%=      5-min Rain = 0
KGU1 110902Z 27019G28KT 05/M00 A2982 RMK A01 T00481004  RH  070%=      5-min Rain = 0
KGU1 110903Z 27021G26KT 05/M00 A2982 RMK A01 T00471004  RH  070%=      5-min Rain = 0
KGU1 110904Z 27024KT 05/M01 A2982 RMK A01 T00481005  RH  070%=      5-min Rain = 0
KGU1 110905Z 27023G32KT 05/M00 A2982 RMK A01 T00471004  RH  070%=      5-min Rain = 0
KGU1 110906Z 25019G26KT 05/M00 A2982 RMK A01 T00471004  RH  070%=      5-min Rain = 0
KGU1 110907Z 26021G28KT 05/M00 A2981 RMK A01 T00471004  RH  070%=      5-min Rain = 0
KGU1 110908Z 27021G26KT 05/M00 A2982 RMK A01 T00471004  RH  070%=      5-min Rain = 0
KGU1 110909Z 26018G23KT 05/M00 A2982 RMK A01 T00471004  RH  070%=      5-min Rain = 0
KGU1 110910Z 25018G25KT 05/M00 A2981 RMK A01 T00471004  RH  070%=      5-min Rain = 0
KGU1 110911Z 28017G23KT 05/M00 A2982 RMK A01 T00471004  RH  071%=      5-min Rain = 0
KGU1 110912Z 26018G25KT 05/M00 A2982 RMK A01 T00461004  RH  071%=      5-min Rain = 0
KGU1 110913Z 27020G28KT 05/M00 A2982 RMK A01 T00461003  RH  071%=      5-min Rain = 0
KGU1 110914Z 26030G44KT 05/M00 A2982 RMK A01 T00461003  RH  071%=      5-min Rain = 0
KGU1 110915Z 25031G39KT 05/M00 A2981 RMK A01 T00471004  RH  070%=      5-min Rain = 0
KGU1 110916Z 25026G33KT 05/M00 A2981 RMK A01 T00471004  RH  071%=      5-min Rain = 0
KGU1 110917Z 26024G29KT 05/M00 A2982 RMK A01 T00481003  RH  070%=      5-min Rain = 0
KGU1 110918Z 27019G28KT 05/M00 A2982 RMK A01 T00471002  RH  071%=      5-min Rain = 0
KGU1 110919Z 28021G27KT 05/M00 A2983 RMK A01 T00461001  RH  072%=      5-min Rain = 0
KGU1 110920Z 27019G27KT 05/00 A2982 RMK A01 T00450001  RH  074%=      5-min Rain = 0
KGU1 110921Z 27021G28KT 05/00 A2982 RMK A01 T004500-0  RH  073%=      5-min Rain = 0
KGU1 110922Z 26021G36KT 05/00 A2982 RMK A01 T00450000  RH  074%=      5-min Rain = 0
KGU1 110923Z 25022G32KT 05/M00 A2981 RMK A01 T00451001  RH  073%=      5-min Rain = 0
KGU1 110924Z 27022G27KT 05/00 A2982 RMK A01 T004500-0  RH  073%=      5-min Rain = 0
KGU1 110925Z 28018G24KT 05/00 A2983 RMK A01 T00450000  RH  074%=      5-min Rain = 0
KGU1 110926Z 28020G26KT 04/00 A2982 RMK A01 T004400-0  RH  074%=      5-min Rain = 0
KGU1 110927Z 28019G24KT 04/M00 A2982 RMK A01 T00441001  RH  073%=      5-min Rain = 0
KGU1 110928Z 27016KT 04/00 A2982 RMK A01 T004400-0  RH  074%=      5-min Rain = 0
KGU1 110929Z 28020G25KT 04/00 A2982 RMK A01 T004400-0  RH  074%=      5-min Rain = 0
KGU1 110930Z 27017G24KT 04/00 A2982 RMK A01 T004400-0  RH  074%=      5-min Rain = 0
KGU1 110931Z 28020G25KT 04/00 A2982 RMK A01 T004400-0  RH  074%=      5-min Rain = 0
KGU1 110932Z 28026G34KT 04/00 A2982 RMK A01 T004400-0  RH  074%=      5-min Rain = 0
KGU1 110933Z 28022G28KT 05/M00 A2982 RMK A01 T00451001  RH  073%=      5-min Rain = 0
KGU1 110934Z 28024G29KT 04/00 A2982 RMK A01 T00440001  RH  074%=      5-min Rain = 0
KGU1 110935Z 27023G31KT 04/00 A2982 RMK A01 T00440001  RH  075%=      5-min Rain = 0
KGU1 110936Z 28019KT 04/00 A2982 RMK A01 T00430001  RH  075%=      5-min Rain = 0
KGU1 110937Z 29019G31KT 04/00 A2983 RMK A01 T00420002  RH  076%=      5-min Rain = 0
KGU1 110938Z 29021G32KT 04/00 A2983 RMK A01 T00420002  RH  076%=      5-min Rain = 0
KGU1 110939Z 28018G25KT 04/00 A2983 RMK A01 T00410002  RH  077%=      5-min Rain = 0
KGU1 110940Z 28025G30KT 04/00 A2983 RMK A01 T00410001  RH  076%=      5-min Rain = 0
KGU1 110941Z 28021G27KT 04/00 A2983 RMK A01 T00420001  RH  075%=      5-min Rain = 0
KGU1 110942Z 28017KT 04/00 A2983 RMK A01 T00420001  RH  076%=      5-min Rain = 0
KGU1 110943Z 28016G22KT 04/00 A2983 RMK A01 T00420001  RH  075%=      5-min Rain = 0
KGU1 110944Z 26019G24KT 04/00 A2983 RMK A01 T00420000  RH  075%=      5-min Rain = 0
KGU1 110945Z 27019G29KT 04/00 A2982 RMK A01 T004200-0  RH  075%=      5-min Rain = 0
KGU1 110946Z 27020G27KT 04/00 A2983 RMK A01 T00420001  RH  075%=      5-min Rain = 0
KGU1 110947Z 28019KT 04/00 A2983 RMK A01 T004200-0  RH  075%=      5-min Rain = 0
KGU1 110948Z 27016KT 04/00 A2983 RMK A01 T00420000  RH  075%=      5-min Rain = 0
KGU1 110949Z 28021G29KT 04/M00 A2983 RMK A01 T00431001  RH  074%=      5-min Rain = 0
KGU1 110950Z 27020G28KT 04/M00 A2983 RMK A01 T00431001  RH  074%=      5-min Rain = 0
KGU1 110951Z 29013KT 04/00 A2983 RMK A01 T004300-0  RH  074%=      5-min Rain = 0
KGU1 110952Z 27017G24KT 04/00 A2983 RMK A01 T004300-0  RH  074%=      5-min Rain = 0
KGU1 110953Z 27021KT 04/00 A2983 RMK A01 T004300-0  RH  074%=      5-min Rain = 0
KGU1 110954Z 28020KT 04/M00 A2983 RMK A01 T00431001  RH  074%=      5-min Rain = 0
KGU1 110955Z 27023G28KT 04/00 A2982 RMK A01 T00430000  RH  075%=      5-min Rain = 0
KGU1 110956Z 28019G24KT 04/00 A2983 RMK A01 T00430001  RH  075%=      5-min Rain = 0
KGU1 110957Z 29018G23KT 04/00 A2982 RMK A01 T00420001  RH  076%=      5-min Rain = 0
KGU1 110958Z 28018KT 04/00 A2983 RMK A01 T00420002  RH  076%=      5-min Rain = 0
KGU1 110959Z 28018G29KT 04/00 A2982 RMK A01 T00420002  RH  076%=      5-min Rain = 0
KGU1 111000Z 27019G25KT 04/00 A2982 RMK A01 T00410002  RH  077%=      5-min Rain = 0
KGU1 111001Z 27017G25KT 04/00 A2982 RMK A01 T00410003  RH  077%=      5-min Rain = 0
KGU1 111002Z 28018KT 04/00 A2982 RMK A01 T00400003  RH  078%=      5-min Rain = 0
KGU1 111003Z 28027KT 04/00 A2982 RMK A01 T00400003  RH  077%=      5-min Rain = 0
KGU1 111004Z 28020G25KT 04/00 A2982 RMK A01 T00400003  RH  078%=      5-min Rain = 0
KGU1 111005Z 27023G30KT 04/00 A2982 RMK A01 T00400003  RH  078%=      5-min Rain = 0
KGU1 111006Z 28025G32KT 04/00 A2983 RMK A01 T00410003  RH  077%=      5-min Rain = 0
KGU1 111007Z 27022KT 04/00 A2982 RMK A01 T00400004  RH  078%=      5-min Rain = 0
KGU1 111008Z 28023G28KT 04/00 A2982 RMK A01 T00400003  RH  078%=      5-min Rain = 0
KGU1 111009Z 29019G25KT 04/00 A2983 RMK A01 T00400004  RH  079%=      5-min Rain = 0
KGU1 111010Z 29020G25KT 04/00 A2982 RMK A01 T00390004  RH  079%=      5-min Rain = 0
KGU1 111011Z 29024KT 04/00 A2983 RMK A01 T00390004  RH  079%=      5-min Rain = 0
KGU1 111012Z 29024G30KT 04/00 A2983 RMK A01 T00390003  RH  078%=      5-min Rain = 0
KGU1 111013Z 29020G25KT 04/00 A2983 RMK A01 T00400003  RH  078%=      5-min Rain = 0
KGU1 111014Z 29024G30KT 04/00 A2983 RMK A01 T00400004  RH  078%=      5-min Rain = 0
KGU1 111015Z 30024G29KT 04/00 A2983 RMK A01 T00400003  RH  078%=      5-min Rain = 0
KGU1 111016Z 28019KT 04/00 A2983 RMK A01 T00400003  RH  078%=      5-min Rain = 0
KGU1 111017Z 29020G26KT 04/00 A2983 RMK A01 T00410003  RH  077%=      5-min Rain = 0
KGU1 111018Z 29022KT 04/00 A2983 RMK A01 T00410004  RH  078%=      5-min Rain = 0
KGU1 111019Z 29021G29KT 04/00 A2983 RMK A01 T00400004  RH  079%=      5-min Rain = 0
KGU1 111020Z 29022G30KT 04/01 A2983 RMK A01 T00400005  RH  079%=      5-min Rain = 0
KGU1 111021Z 29019KT 04/01 A2983 RMK A01 T00390005  RH  079%=      5-min Rain = 0
KGU1 111022Z 30026G33KT 04/01 A2983 RMK A01 T00390005  RH  079%=      5-min Rain = 0
KGU1 111023Z 29028KT 04/01 A2983 RMK A01 T00390005  RH  079%=      5-min Rain = 0
KGU1 111024Z 29019KT 04/01 A2983 RMK A01 T00390006  RH  080%=      5-min Rain = 0
KGU1 111025Z 29025KT 04/01 A2983 RMK A01 T00380006  RH  080%=      5-min Rain = 0
KGU1 111026Z 29024G33KT 04/01 A2983 RMK A01 T00380006  RH  081%=      5-min Rain = 0
KGU1 111027Z 30021G27KT 04/01 A2984 RMK A01 T00380007  RH  081%=      5-min Rain = 0
KGU1 111028Z 30025G32KT 04/01 A2984 RMK A01 T00380007  RH  081%=      5-min Rain = 0
KGU1 111029Z 29022G27KT 04/01 A2984 RMK A01 T00380006  RH  081%=      5-min Rain = 0
KGU1 111030Z 30021G27KT 04/01 A2984 RMK A01 T00380007  RH  082%=      5-min Rain = 0.01
KGU1 111031Z 30025G32KT 04/01 A2984 RMK A01 T00370007  RH  082%=      5-min Rain = 0
KGU1 111032Z 30020G26KT 04/01 A2984 RMK A01 T00380007  RH  082%=      5-min Rain = 0
KGU1 111033Z 29023KT 04/01 A2984 RMK A01 T00370008  RH  082%=      5-min Rain = 0
KGU1 111034Z 29022G27KT 04/01 A2984 RMK A01 T00370008  RH  082%=      5-min Rain = 0
KGU1 111035Z 29024G32KT 04/01 A2984 RMK A01 T00370008  RH  082%=      5-min Rain = 0
KGU1 111036Z 29023G31KT 04/01 A2984 RMK A01 T00370008  RH  082%=      5-min Rain = 0
KGU1 111037Z 29027G33KT 04/01 A2984 RMK A01 T00380007  RH  081%=      5-min Rain = 0
KGU1 111038Z 30029G40KT 04/01 A2984 RMK A01 T00390006  RH  080%=      5-min Rain = 0
KGU1 111039Z 30024G31KT 04/01 A2984 RMK A01 T00390007  RH  080%=      5-min Rain = 0
KGU1 111040Z 30021G27KT 04/01 A2984 RMK A01 T00390008  RH  081%=      5-min Rain = 0
KGU1 111041Z 30023G30KT 04/01 A2985 RMK A01 T00390007  RH  081%=      5-min Rain = 0
KGU1 111042Z 29024G36KT 04/01 A2985 RMK A01 T00380008  RH  082%=      5-min Rain = 0
KGU1 111043Z 29028G35KT 04/01 A2985 RMK A01 T00380007  RH  081%=      5-min Rain = 0
KGU1 111044Z 29024G30KT 04/01 A2985 RMK A01 T00380008  RH  082%=      5-min Rain = 0
KGU1 111045Z 30024G30KT 04/01 A2985 RMK A01 T00370008  RH  082%=      5-min Rain = 0
KGU1 111046Z 30021G28KT 04/01 A2985 RMK A01 T00380008  RH  082%=      5-min Rain = 0
KGU1 111047Z 29024G29KT 04/01 A2985 RMK A01 T00370009  RH  082%=      5-min Rain = 0
KGU1 111048Z 29023KT 04/01 A2985 RMK A01 T00370007  RH  082%=      5-min Rain = 0
KGU1 111049Z 29021G26KT 04/01 A2985 RMK A01 T00380007  RH  082%=      5-min Rain = 0
KGU1 111050Z 29028G35KT 04/01 A2985 RMK A01 T00380007  RH  081%=      5-min Rain = 0
KGU1 111051Z 30026G31KT 04/01 A2985 RMK A01 T00390006  RH  080%=      5-min Rain = 0
KGU1 111052Z 30024G31KT 04/01 A2984 RMK A01 T00390006  RH  080%=      5-min Rain = 0
KGU1 111053Z 29025G31KT 04/01 A2984 RMK A01 T00390006  RH  080%=      5-min Rain = 0
KGU1 111054Z 29025G32KT 04/01 A2984 RMK A01 T00390006  RH  080%=      5-min Rain = 0
KGU1 111055Z 30023KT 04/01 A2985 RMK A01 T00380006  RH  080%=      5-min Rain = 0
KGU1 111056Z 29018KT 04/01 A2984 RMK A01 T00380007  RH  081%=      5-min Rain = 0
KGU1 111057Z 30023KT 04/01 A2984 RMK A01 T00380006  RH  081%=      5-min Rain = 0
KGU1 111058Z 30023G32KT 04/01 A2984 RMK A01 T00390007  RH  081%=      5-min Rain = 0
KGU1 111059Z 30027G35KT 04/01 A2985 RMK A01 T00390005  RH  079%=      5-min Rain = 0
KGU1 111100Z 30019G25KT 04/01 A2984 RMK A01 T00400006  RH  080%=      5-min Rain = 0
KGU1 111101Z 29025G30KT 04/01 A2984 RMK A01 T00390007  RH  080%=      5-min Rain = 0
KGU1 111102Z 30025G31KT 04/01 A2985 RMK A01 T00390007  RH  081%=      5-min Rain = 0
KGU1 111103Z 30023G29KT 04/01 A2985 RMK A01 T00390007  RH  081%=      5-min Rain = 0
KGU1 111104Z 30021G28KT 04/01 A2985 RMK A01 T00390007  RH  081%=      5-min Rain = 0
KGU1 111105Z 29026G32KT 04/01 A2984 RMK A01 T00390006  RH  080%=      5-min Rain = 0
KGU1 111106Z 29023G29KT 04/01 A2984 RMK A01 T00390007  RH  080%=      5-min Rain = 0
KGU1 111107Z 30023G30KT 04/01 A2984 RMK A01 T00390007  RH  080%=      5-min Rain = 0
KGU1 111108Z 29026G32KT 04/01 A2984 RMK A01 T00390005  RH  080%=      5-min Rain = 0
KGU1 111109Z 30026G31KT 04/01 A2984 RMK A01 T00390005  RH  079%=      5-min Rain = 0
KGU1 111110Z 31024G29KT 04/01 A2984 RMK A01 T00400005  RH  079%=      5-min Rain = 0
KGU1 111111Z 31022G28KT 04/01 A2984 RMK A01 T00390005  RH  079%=      5-min Rain = 0
KGU1 111112Z 30025KT 04/01 A2984 RMK A01 T00390005  RH  079%=      5-min Rain = 0
KGU1 111113Z 31023G28KT 04/01 A2985 RMK A01 T00400005  RH  079%=      5-min Rain = 0
KGU1 111114Z 31024KT 04/01 A2985 RMK A01 T00400005  RH  079%=      5-min Rain = 0
KGU1 111115Z 31022KT 04/01 A2985 RMK A01 T00400005  RH  079%=      5-min Rain = 0
KGU1 111116Z 32022KT 04/01 A2985 RMK A01 T00410005  RH  078%=      5-min Rain = 0
KGU1 111117Z 31017KT 04/01 A2984 RMK A01 T00400005  RH  079%=      5-min Rain = 0
KGU1 111118Z 31023G30KT 04/00 A2985 RMK A01 T00400004  RH  078%=      5-min Rain = 0
KGU1 111119Z 30022G27KT 04/00 A2985 RMK A01 T00410004  RH  077%=      5-min Rain = 0
KGU1 111120Z 30021KT 04/01 A2985 RMK A01 T00410005  RH  078%=      5-min Rain = 0
KGU1 111121Z 30022G28KT 04/01 A2985 RMK A01 T00400005  RH  079%=      5-min Rain = 0
KGU1 111122Z 31025G30KT 04/00 A2985 RMK A01 T00400003  RH  078%=      5-min Rain = 0
KGU1 111123Z 30025KT 04/00 A2985 RMK A01 T00410004  RH  078%=      5-min Rain = 0
KGU1 111124Z 30026G32KT 04/00 A2985 RMK A01 T00410003  RH  077%=      5-min Rain = 0
KGU1 111125Z 31027G32KT 04/00 A2985 RMK A01 T00420003  RH  077%=      5-min Rain = 0
KGU1 111126Z 30023G30KT 04/00 A2985 RMK A01 T00420003  RH  077%=      5-min Rain = 0
KGU1 111127Z 31024G29KT 04/00 A2985 RMK A01 T00430003  RH  076%=      5-min Rain = 0
KGU1 111128Z 31019G27KT 04/01 A2985 RMK A01 T00420005  RH  077%=      5-min Rain = 0
KGU1 111129Z 31021G26KT 04/00 A2985 RMK A01 T00410004  RH  078%=      5-min Rain = 0
KGU1 111130Z 31021G27KT 04/00 A2985 RMK A01 T00410004  RH  078%=      5-min Rain = 0.01
KGU1 111131Z 31020KT 04/01 A2985 RMK A01 T00410005  RH  079%=      5-min Rain = 0
KGU1 111132Z 31022KT 04/00 A2986 RMK A01 T00400004  RH  078%=      5-min Rain = 0
KGU1 111133Z 30023G28KT 04/00 A2985 RMK A01 T00410004  RH  078%=      5-min Rain = 0
KGU1 111134Z 31023KT 04/00 A2985 RMK A01 T00410004  RH  078%=      5-min Rain = 0
KGU1 111135Z 31022KT 04/00 A2986 RMK A01 T00410004  RH  077%=      5-min Rain = 0
KGU1 111136Z 30021KT 04/00 A2986 RMK A01 T00420004  RH  077%=      5-min Rain = 0
KGU1 111137Z 30025G32KT 04/00 A2986 RMK A01 T00410004  RH  078%=      5-min Rain = 0
KGU1 111138Z 30027G34KT 04/00 A2986 RMK A01 T00410004  RH  077%=      5-min Rain = 0
KGU1 111139Z 30024G29KT 04/00 A2986 RMK A01 T00410004  RH  078%=      5-min Rain = 0
KGU1 111140Z 30024G30KT 04/01 A2986 RMK A01 T00410005  RH  078%=      5-min Rain = 0
KGU1 111141Z 31021KT 04/01 A2986 RMK A01 T00400005  RH  079%=      5-min Rain = 0
KGU1 111142Z 30021G26KT 04/01 A2986 RMK A01 T00390005  RH  079%=      5-min Rain = 0
KGU1 111143Z 30021G26KT 04/01 A2986 RMK A01 T00390005  RH  079%=      5-min Rain = 0
KGU1 111144Z 30021G27KT 04/01 A2986 RMK A01 T00390005  RH  080%=      5-min Rain = 0
KGU1 111145Z 30021G29KT 04/01 A2986 RMK A01 T00390005  RH  080%=      5-min Rain = 0
KGU1 111146Z 30024G30KT 04/01 A2986 RMK A01 T00380005  RH  080%=      5-min Rain = 0
KGU1 111147Z 31024G31KT 04/00 A2987 RMK A01 T00390004  RH  079%=      5-min Rain = 0
KGU1 111148Z 30025G33KT 04/00 A2987 RMK A01 T00400004  RH  078%=      5-min Rain = 0
KGU1 111149Z 31025G30KT 04/00 A2987 RMK A01 T00410004  RH  078%=      5-min Rain = 0
KGU1 111150Z 31022G27KT 04/00 A2987 RMK A01 T00410004  RH  078%=      5-min Rain = 0
KGU1 111151Z 30020KT 04/01 A2986 RMK A01 T00390005  RH  079%=      5-min Rain = 0
KGU1 111152Z 31024G29KT 04/00 A2987 RMK A01 T00390004  RH  079%=      5-min Rain = 0
KGU1 111153Z 30022G27KT 04/00 A2987 RMK A01 T00400004  RH  078%=      5-min Rain = 0
KGU1 111154Z 31021G26KT 04/00 A2987 RMK A01 T00390004  RH  079%=      5-min Rain = 0
KGU1 111155Z 30023G30KT 04/00 A2987 RMK A01 T00390004  RH  079%=      5-min Rain = 0
KGU1 111156Z 30021KT 04/00 A2987 RMK A01 T00390004  RH  079%=      5-min Rain = 0
KGU1 111157Z 30023KT 04/00 A2987 RMK A01 T00390004  RH  078%=      5-min Rain = 0
KGU1 111158Z 30022G30KT 04/00 A2987 RMK A01 T00400004  RH  078%=      5-min Rain = 0
KGU1 111159Z 30022G28KT 04/00 A2987 RMK A01 T00390004  RH  079%=      5-min Rain = 0
KGU1 111200Z 30024KT 04/00 A2987 RMK A01 T00390004  RH  078%=      5-min Rain = 0
KGU1 111201Z 31023KT 04/00 A2988 RMK A01 T00400004  RH  078%=      5-min Rain = 0
KGU1 111202Z 31027KT 04/00 A2988 RMK A01 T00400003  RH  078%=      5-min Rain = 0
KGU1 111203Z 31024G29KT 04/00 A2988 RMK A01 T00400003  RH  078%=      5-min Rain = 0
KGU1 111204Z 30022G27KT 04/00 A2988 RMK A01 T00400004  RH  078%=      5-min Rain = 0
KGU1 111205Z 30021KT 04/00 A2988 RMK A01 T00390004  RH  079%=      5-min Rain = 0
KGU1 111206Z 31024KT 04/00 A2988 RMK A01 T00390004  RH  079%=      5-min Rain = 0
KGU1 111207Z 31025G33KT 04/00 A2988 RMK A01 T00380004  RH  079%=      5-min Rain = 0
KGU1 111208Z 30025G31KT 04/00 A2988 RMK A01 T00380004  RH  079%=      5-min Rain = 0
KGU1 111209Z 31023KT 04/00 A2988 RMK A01 T00380004  RH  079%=      5-min Rain = 0
KGU1 111210Z 31024KT 04/00 A2988 RMK A01 T00390003  RH  079%=      5-min Rain = 0
KGU1 111211Z 31021KT 04/00 A2988 RMK A01 T00380004  RH  079%=      5-min Rain = 0
KGU1 111212Z 31021KT 04/00 A2988 RMK A01 T00380004  RH  079%=      5-min Rain = 0
KGU1 111213Z 31023G29KT 04/00 A2988 RMK A01 T00380004  RH  079%=      5-min Rain = 0
KGU1 111214Z 31020G25KT 04/00 A2988 RMK A01 T00380003  RH  079%=      5-min Rain = 0
KGU1 111215Z 30025KT 04/00 A2988 RMK A01 T00390002  RH  078%=      5-min Rain = 0
KGU1 111216Z 31021G27KT 04/00 A2988 RMK A01 T00400003  RH  078%=      5-min Rain = 0
KGU1 111217Z 31024KT 04/00 A2988 RMK A01 T00400002  RH  078%=      5-min Rain = 0
KGU1 111218Z 32022KT 04/00 A2988 RMK A01 T00400002  RH  077%=      5-min Rain = 0
KGU1 111219Z 31023G29KT 04/00 A2988 RMK A01 T00400002  RH  077%=      5-min Rain = 0
KGU1 111220Z 31024KT 04/00 A2988 RMK A01 T00410001  RH  076%=      5-min Rain = 0
KGU1 111221Z 32024KT 04/00 A2989 RMK A01 T00430000  RH  075%=      5-min Rain = 0
KGU1 111222Z 31023G29KT 04/00 A2989 RMK A01 T004300-0  RH  074%=      5-min Rain = 0
KGU1 111223Z 32025G32KT 04/00 A2989 RMK A01 T004400-0  RH  074%=      5-min Rain = 0
KGU1 111224Z 31022G27KT 05/M00 A2989 RMK A01 T00451001  RH  073%=      5-min Rain = 0
KGU1 111225Z 32025G33KT 05/M00 A2989 RMK A01 T00451001  RH  073%=      5-min Rain = 0
KGU1 111226Z 32026G34KT 05/M00 A2989 RMK A01 T00451002  RH  072%=      5-min Rain = 0
KGU1 111227Z 31023G28KT 05/M00 A2989 RMK A01 T00461002  RH  072%=      5-min Rain = 0
KGU1 111228Z 32022KT 05/M00 A2989 RMK A01 T00461002  RH  072%=      5-min Rain = 0
KGU1 111229Z 32024G33KT 05/M00 A2989 RMK A01 T00461002  RH  072%=      5-min Rain = 0
KGU1 111230Z 32024G29KT 05/M00 A299 RMK A01 T00461002  RH  072%=      5-min Rain = 0
KGU1 111231Z 33021KT 05/M00 A2989 RMK A01 T00471003  RH  071%=      5-min Rain = 0
KGU1 111232Z 32020KT 05/M00 A299 RMK A01 T00471003  RH  071%=      5-min Rain = 0
KGU1 111233Z 32018G23KT 05/M00 A299 RMK A01 T00471003  RH  071%=      5-min Rain = 0
KGU1 111234Z 32017G23KT 05/M00 A299 RMK A01 T00461002  RH  072%=      5-min Rain = 0
KGU1 111235Z 31021G26KT 05/M00 A299 RMK A01 T00461003  RH  071%=      5-min Rain = 0
KGU1 111236Z 31023G28KT 05/M00 A299 RMK A01 T00471004  RH  071%=      5-min Rain = 0
KGU1 111237Z 32020G27KT 05/M00 A299 RMK A01 T00471004  RH  070%=      5-min Rain = 0
KGU1 111238Z 32023G28KT 05/M00 A299 RMK A01 T00481004  RH  070%=      5-min Rain = 0
KGU1 111239Z 31022KT 05/M00 A299 RMK A01 T00481004  RH  070%=      5-min Rain = 0
KGU1 111240Z 31019KT 05/M00 A299 RMK A01 T00481003  RH  071%=      5-min Rain = 0
KGU1 111241Z 32017G22KT 05/M00 A299 RMK A01 T00461003  RH  071%=      5-min Rain = 0
KGU1 111242Z 32020KT 05/M00 A299 RMK A01 T00471004  RH  070%=      5-min Rain = 0
KGU1 111243Z 31019G29KT 05/M00 A299 RMK A01 T00461004  RH  071%=      5-min Rain = 0
KGU1 111244Z 31023G28KT 05/M01 A299 RMK A01 T00471005  RH  070%=      5-min Rain = 0
KGU1 111245Z 32023G28KT 05/M01 A299 RMK A01 T00481005  RH  069%=      5-min Rain = 0
KGU1 111246Z 32021G28KT 05/M01 A299 RMK A01 T00471005  RH  069%=      5-min Rain = 0
KGU1 111247Z 31024KT 05/M01 A2991 RMK A01 T00481006  RH  069%=      5-min Rain = 0
KGU1 111248Z 33020KT 05/M01 A2991 RMK A01 T00491007  RH  068%=      5-min Rain = 0
KGU1 111249Z 33020KT 05/M01 A2991 RMK A01 T00491006  RH  068%=      5-min Rain = 0
KGU1 111250Z 33021G26KT 05/M01 A2991 RMK A01 T00481006  RH  068%=      5-min Rain = 0
KGU1 111251Z 33021KT 05/M01 A2991 RMK A01 T00491007  RH  068%=      5-min Rain = 0
KGU1 111252Z 33026G33KT 05/M01 A2991 RMK A01 T00491007  RH  068%=      5-min Rain = 0
KGU1 111253Z 33025KT 05/M01 A2992 RMK A01 T00501008  RH  067%=      5-min Rain = 0
KGU1 111254Z 33023G28KT 05/M01 A2991 RMK A01 T00501008  RH  067%=      5-min Rain = 0
KGU1 111255Z 33022G30KT 05/M01 A2992 RMK A01 T00501008  RH  067%=      5-min Rain = 0
KGU1 111256Z 33022G27KT 05/M01 A2992 RMK A01 T00501008  RH  067%=      5-min Rain = 0
KGU1 111257Z 33022G29KT 05/M01 A2992 RMK A01 T00501008  RH  067%=      5-min Rain = 0
KGU1 111258Z 32018KT 05/M01 A2992 RMK A01 T00491007  RH  068%=      5-min Rain = 0
KGU1 111259Z 33021G29KT 05/M01 A2992 RMK A01 T00491008  RH  068%=      5-min Rain = 0
KGU1 111300Z 32021G26KT 05/M01 A2993 RMK A01 T00491007  RH  068%=      5-min Rain = 0
KGU1 111301Z 33024KT 05/M01 A2993 RMK A01 T00501008  RH  067%=      5-min Rain = 0
KGU1 111302Z 32017G22KT 05/M01 A2992 RMK A01 T00501008  RH  067%=      5-min Rain = 0
KGU1 111303Z 34024G30KT 05/M01 A2993 RMK A01 T00501008  RH  067%=      5-min Rain = 0
KGU1 111304Z 33020KT 05/M01 A2993 RMK A01 T00501008  RH  067%=      5-min Rain = 0
KGU1 111305Z 32020G26KT 05/M01 A2993 RMK A01 T00501009  RH  066%=      5-min Rain = 0
KGU1 111306Z 32021G29KT 05/M01 A2993 RMK A01 T00501009  RH  066%=      5-min Rain = 0
KGU1 111307Z 33024KT 05/M01 A2993 RMK A01 T00511010  RH  065%=      5-min Rain = 0
KGU1 111308Z 33021G26KT 05/M01 A2993 RMK A01 T00511009  RH  066%=      5-min Rain = 0
KGU1 111309Z 33021G27KT 05/M01 A2993 RMK A01 T00511009  RH  066%=      5-min Rain = 0
KGU1 111310Z 33024KT 05/M01 A2994 RMK A01 T00511009  RH  066%=      5-min Rain = 0
KGU1 111311Z 33022G28KT 05/M01 A2994 RMK A01 T00511009  RH  066%=      5-min Rain = 0
KGU1 111312Z 33023G28KT 05/M01 A2994 RMK A01 T00511010  RH  066%=      5-min Rain = 0
KGU1 111313Z 33022G27KT 05/M01 A2994 RMK A01 T00511010  RH  065%=      5-min Rain = 0
KGU1 111314Z 33021G26KT 05/M01 A2994 RMK A01 T00511010  RH  065%=      5-min Rain = 0
KGU1 111315Z 33021G29KT 05/M01 A2994 RMK A01 T00511010  RH  065%=      5-min Rain = 0
KGU1 111316Z 33022G27KT 05/M01 A2994 RMK A01 T00511011  RH  065%=      5-min Rain = 0
KGU1 111317Z 32018KT 05/M01 A2993 RMK A01 T00511010  RH  065%=      5-min Rain = 0
KGU1 111318Z 33016KT 05/M01 A2993 RMK A01 T00511010  RH  066%=      5-min Rain = 0
KGU1 111319Z 32015G20KT 05/M01 A2994 RMK A01 T00501010  RH  066%=      5-min Rain = 0
KGU1 111320Z 32018KT 05/M01 A2995 RMK A01 T00501010  RH  066%=      5-min Rain = 0
KGU1 111321Z 33014G21KT 05/M01 A2995 RMK A01 T00511010  RH  066%=      5-min Rain = 0
KGU1 111322Z 34016G23KT 05/M01 A2995 RMK A01 T00501010  RH  066%=      5-min Rain = 0
KGU1 111323Z 33018G23KT 05/M01 A2996 RMK A01 T00511011  RH  065%=      5-min Rain = 0
KGU1 111324Z 32014G21KT 05/M01 A2995 RMK A01 T00511010  RH  065%=      5-min Rain = 0
KGU1 111325Z 33017KT 05/M01 A2996 RMK A01 T00511011  RH  065%=      5-min Rain = 0
KGU1 111326Z 33017G22KT 05/M01 A2996 RMK A01 T00511011  RH  065%=      5-min Rain = 0
KGU1 111327Z 33015G20KT 05/M01 A2996 RMK A01 T00511011  RH  065%=      5-min Rain = 0
KGU1 111328Z 33017KT 05/M01 A2997 RMK A01 T00511011  RH  065%=      5-min Rain = 0
KGU1 111329Z 33017KT 05/M01 A2997 RMK A01 T00521012  RH  064%=      5-min Rain = 0
KGU1 111330Z 33013KT 05/M01 A2997 RMK A01 T00521011  RH  064%=      5-min Rain = 0
KGU1 111331Z 33012KT 05/M01 A2998 RMK A01 T00521011  RH  064%=      5-min Rain = 0
KGU1 111332Z 33014KT 05/M01 A2998 RMK A01 T00521011  RH  065%=      5-min Rain = 0
KGU1 111333Z 34012G17KT 05/M01 A2998 RMK A01 T00521011  RH  064%=      5-min Rain = 0
KGU1 111334Z 33015KT 05/M01 A2998 RMK A01 T00521011  RH  064%=      5-min Rain = 0
KGU1 111335Z 30010KT 05/M01 A2998 RMK A01 T00521010  RH  065%=      5-min Rain = 0
KGU1 111336Z 32009KT 05/M01 A2998 RMK A01 T00511010  RH  065%=      5-min Rain = 0
KGU1 111337Z 32013KT 05/M01 A2998 RMK A01 T00511010  RH  065%=      5-min Rain = 0
KGU1 111338Z 29006KT 05/M01 A2998 RMK A01 T00511010  RH  066%=      5-min Rain = 0
KGU1 111339Z 31006KT 05/M01 A2998 RMK A01 T00501010  RH  066%=      5-min Rain = 0
KGU1 111340Z 30007KT 05/M01 A2998 RMK A01 T00491011  RH  066%=      5-min Rain = 0
KGU1 111341Z 24005KT 05/M01 A2998 RMK A01 T00481007  RH  068%=      5-min Rain = 0
KGU1 111342Z 19002KT 05/M01 A2998 RMK A01 T00471006  RH  069%=      5-min Rain = 0
KGU1 111343Z 21004KT 05/M00 A2998 RMK A01 T00451002  RH  073%=      5-min Rain = 0
KGU1 111344Z 21004KT 04/M00 A2999 RMK A01 T00421001  RH  074%=      5-min Rain = 0
KGU1 111345Z 19003KT 04/M01 A2999 RMK A01 T00401005  RH  073%=      5-min Rain = 0
KGU1 111346Z 24004KT 04/M00 A2999 RMK A01 T00391002  RH  075%=      5-min Rain = 0
KGU1 111347Z 23004KT 04/M00 A2999 RMK A01 T00371002  RH  076%=      5-min Rain = 0
KGU1 111348Z 23004KT 04/M00 A2999 RMK A01 T00361003  RH  077%=      5-min Rain = 0
KGU1 111349Z 24004KT 04/M00 A2999 RMK A01 T00351003  RH  077%=      5-min Rain = 0
KGU1 111350Z 18004KT 04/M00 A2999 RMK A01 T00351003  RH  077%=      5-min Rain = 0
KGU1 111351Z 15004KT 04/M00 A2999 RMK A01 T00351002  RH  078%=      5-min Rain = 0
KGU1 111352Z 36002KT 03/M00 A2999 RMK A01 T00341003  RH  078%=      5-min Rain = 0
KGU1 111353Z 34002KT 03/M00 A30 RMK A01 T00331003  RH  078%=      5-min Rain = 0
KGU1 111354Z 13002KT 03/M00 A2999 RMK A01 T00341003  RH  078%=      5-min Rain = 0
KGU1 111355Z 15001KT 03/M00 A30 RMK A01 T00341004  RH  077%=      5-min Rain = 0
KGU1 111356Z 17002KT 03/M00 A30 RMK A01 T00331003  RH  078%=      5-min Rain = 0
KGU1 111357Z 16001KT 03/M00 A2999 RMK A01 T00331004  RH  078%=      5-min Rain = 0
KGU1 111358Z 16001KT 03/M01 A2999 RMK A01 T00331005  RH  077%=      5-min Rain = 0
KGU1 111359Z 07001KT 03/M01 A30 RMK A01 T00331005  RH  077%=      5-min Rain = 0
KGU1 111400Z 36003G8KT 03/M01 A30 RMK A01 T00341006  RH  076%=      5-min Rain = 0
KGU1 111401Z 34008KT 04/M02 A30 RMK A01 T00381015  RH  069%=      5-min Rain = 0
KGU1 111402Z 32007KT 04/M02 A30 RMK A01 T00441016  RH  066%=      5-min Rain = 0
KGU1 111403Z 34005G10KT 05/M02 A30 RMK A01 T00461015  RH  065%=      5-min Rain = 0
KGU1 111404Z 35006KT 05/M02 A30 RMK A01 T00481017  RH  063%=      5-min Rain = 0
KGU1 111405Z 29006KT 05/M02 A30 RMK A01 T00501017  RH  063%=      5-min Rain = 0
KGU1 111406Z 30005KT 05/M02 A30 RMK A01 T00511017  RH  062%=      5-min Rain = 0
KGU1 111407Z 27004KT 05/M02 A30 RMK A01 T00521016  RH  062%=      5-min Rain = 0
KGU1 111408Z 30005KT 05/M02 A30 RMK A01 T00511015  RH  063%=      5-min Rain = 0
KGU1 111409Z 27006KT 05/M01 A3001 RMK A01 T00501012  RH  065%=      5-min Rain = 0
KGU1 111410Z 27005G15KT 05/M01 A3001 RMK A01 T00481011  RH  066%=      5-min Rain = 0
KGU1 111411Z 35008G15KT 05/M02 A3001 RMK A01 T00471017  RH  064%=      5-min Rain = 0
KGU1 111412Z 34008KT 05/M02 A3001 RMK A01 T00491017  RH  063%=      5-min Rain = 0
KGU1 111413Z 33007KT 05/M02 A3001 RMK A01 T00491017  RH  063%=      5-min Rain = 0
KGU1 111414Z 33009KT 05/M02 A3002 RMK A01 T00491017  RH  063%=      5-min Rain = 0
KGU1 111415Z 33006KT 05/M02 A3002 RMK A01 T00501016  RH  063%=      5-min Rain = 0
KGU1 111416Z 34005KT 05/M02 A3002 RMK A01 T00491016  RH  063%=      5-min Rain = 0
KGU1 111417Z 34006KT 05/M02 A3002 RMK A01 T00481017  RH  063%=      5-min Rain = 0
KGU1 111418Z 35009KT 05/M02 A3002 RMK A01 T00491017  RH  063%=      5-min Rain = 0
KGU1 111419Z 35007KT 05/M02 A3002 RMK A01 T00501017  RH  063%=      5-min Rain = 0
KGU1 111420Z 33006KT 05/M02 A3003 RMK A01 T00491016  RH  063%=      5-min Rain = 0
KGU1 111421Z 34008KT 05/M02 A3003 RMK A01 T00481017  RH  064%=      5-min Rain = 0
KGU1 111422Z 32009KT 05/M02 A3003 RMK A01 T00491018  RH  063%=      5-min Rain = 0
KGU1 111423Z 34008KT 05/M02 A3003 RMK A01 T00511021  RH  061%=      5-min Rain = 0
KGU1 111424Z 00011KT 05/M02 A3003 RMK A01 T00511017  RH  062%=      5-min Rain = 0
KGU1 111425Z 35009KT 05/M02 A3003 RMK A01 T00511016  RH  063%=      5-min Rain = 0
KGU1 111426Z 35009KT 05/M02 A3003 RMK A01 T00511015  RH  063%=      5-min Rain = 0
KGU1 111427Z 35010KT 05/M02 A3003 RMK A01 T00511017  RH  062%=      5-min Rain = 0
KGU1 111428Z 33010KT 05/M02 A3004 RMK A01 T00511016  RH  062%=      5-min Rain = 0
KGU1 111429Z 36013G19KT 05/M02 A3003 RMK A01 T00511017  RH  062%=      5-min Rain = 0
KGU1 111430Z 35010G16KT 05/M02 A3004 RMK A01 T00531019  RH  060%=      5-min Rain = 0
KGU1 111431Z 35009KT 05/M02 A3004 RMK A01 T00531018  RH  061%=      5-min Rain = 0
KGU1 111432Z 33009KT 05/M02 A3004 RMK A01 T00531016  RH  062%=      5-min Rain = 0
KGU1 111433Z 31006KT 05/M02 A3004 RMK A01 T00521016  RH  062%=      5-min Rain = 0
KGU1 111434Z 34008KT 05/M02 A3004 RMK A01 T00501015  RH  064%=      5-min Rain = 0
KGU1 111435Z 35007KT 05/M02 A3004 RMK A01 T00491016  RH  063%=      5-min Rain = 0
KGU1 111436Z 33009KT 05/M02 A3004 RMK A01 T00501016  RH  063%=      5-min Rain = 0
KGU1 111437Z 33008KT 05/M02 A3004 RMK A01 T00491015  RH  064%=      5-min Rain = 0
KGU1 111438Z 34006KT 05/M02 A3005 RMK A01 T00491016  RH  064%=      5-min Rain = 0
KGU1 111439Z 35006KT 05/M02 A3005 RMK A01 T00481015  RH  064%=      5-min Rain = 0
KGU1 111440Z 35009KT 05/M02 A3005 RMK A01 T00471015  RH  064%=      5-min Rain = 0
KGU1 111441Z 36010KT 05/M02 A3005 RMK A01 T00481016  RH  064%=      5-min Rain = 0
KGU1 111442Z 36008KT 05/M02 A3005 RMK A01 T00491016  RH  063%=      5-min Rain = 0
KGU1 111443Z 35008KT 05/M02 A3006 RMK A01 T00501016  RH  063%=      5-min Rain = 0
KGU1 111444Z 33008KT 05/M02 A3006 RMK A01 T00501015  RH  063%=      5-min Rain = 0
KGU1 111445Z 01010KT 05/M01 A3006 RMK A01 T00501013  RH  064%=      5-min Rain = 0
KGU1 111446Z 03009KT 05/M01 A3006 RMK A01 T00481008  RH  068%=      5-min Rain = 0
KGU1 111447Z 04006KT 05/M01 A3006 RMK A01 T00451007  RH  070%=      5-min Rain = 0
KGU1 111448Z 03006KT 04/M01 A3006 RMK A01 T00431007  RH  071%=      5-min Rain = 0
KGU1 111449Z 01006KT 04/M01 A3006 RMK A01 T00421006  RH  072%=      5-min Rain = 0
KGU1 111450Z 36009KT 04/M01 A3007 RMK A01 T00401005  RH  073%=      5-min Rain = 0
KGU1 111451Z 35009KT 04/M00 A3007 RMK A01 T00391004  RH  074%=      5-min Rain = 0
KGU1 111452Z 35011KT 04/M00 A3007 RMK A01 T00381003  RH  075%=      5-min Rain = 0
KGU1 111453Z 36011KT 04/M00 A3007 RMK A01 T00381002  RH  076%=      5-min Rain = 0
KGU1 111454Z 00008KT 04/M00 A3007 RMK A01 T00371001  RH  077%=      5-min Rain = 0
KGU1 111455Z 01007KT 04/M00 A3007 RMK A01 T00361001  RH  078%=      5-min Rain = 0
KGU1 111456Z 01009KT 04/M00 A3007 RMK A01 T00361001  RH  078%=      5-min Rain = 0
KGU1 111457Z 01009KT 04/00 A3008 RMK A01 T00360000  RH  078%=      5-min Rain = 0
KGU1 111458Z 00009KT 04/00 A3008 RMK A01 T00360001  RH  079%=      5-min Rain = 0
KGU1 111459Z 00009KT 04/00 A3008 RMK A01 T00360002  RH  079%=      5-min Rain = 0
KGU1 111500Z 35008KT 04/00 A3008 RMK A01 T00360001  RH  079%=      5-min Rain = 0
KGU1 111501Z 01007KT 04/00 A3008 RMK A01 T00350000  RH  079%=      5-min Rain = 0
KGU1 111502Z 02007KT 04/M00 A3008 RMK A01 T00351001  RH  078%=      5-min Rain = 0
KGU1 111503Z 03006KT 04/M00 A3008 RMK A01 T00351001  RH  078%=      5-min Rain = 0
KGU1 111504Z 05005KT 03/M00 A3009 RMK A01 T00341001  RH  078%=      5-min Rain = 0
KGU1 111505Z 07005KT 03/M00 A3009 RMK A01 T00341002  RH  078%=      5-min Rain = 0
KGU1 111506Z 09005KT 03/M00 A3009 RMK A01 T00331003  RH  078%=      5-min Rain = 0
KGU1 111507Z 10005KT 03/M00 A3009 RMK A01 T00331003  RH  078%=      5-min Rain = 0
KGU1 111508Z 10005KT 03/M00 A3009 RMK A01 T00331003  RH  078%=      5-min Rain = 0
KGU1 111509Z 10003KT 03/M00 A3009 RMK A01 T00321003  RH  079%=      5-min Rain = 0
KGU1 111510Z 09003KT 03/M00 A301 RMK A01 T00311003  RH  079%=      5-min Rain = 0
KGU1 111511Z 09003KT 03/M00 A301 RMK A01 T00311003  RH  079%=      5-min Rain = 0
KGU1 111512Z 09002KT 03/M00 A301 RMK A01 T00311003  RH  080%=      5-min Rain = 0
KGU1 111513Z 10002KT 03/M00 A301 RMK A01 T00311002  RH  080%=      5-min Rain = 0
KGU1 111514Z 09003KT 03/M00 A301 RMK A01 T00311002  RH  080%=      5-min Rain = 0
KGU1 111515Z 11004KT 03/M00 A301 RMK A01 T00311001  RH  080%=      5-min Rain = 0
KGU1 111516Z 11003KT 03/M00 A301 RMK A01 T00311001  RH  080%=      5-min Rain = 0
KGU1 111517Z 10003KT 03/M00 A301 RMK A01 T00321001  RH  080%=      5-min Rain = 0
KGU1 111518Z 10004KT 03/00 A301 RMK A01 T003200-0  RH  080%=      5-min Rain = 0
KGU1 111519Z 10004KT 03/00 A3011 RMK A01 T00320001  RH  081%=      5-min Rain = 0
KGU1 111520Z 09003KT 03/00 A3011 RMK A01 T00320002  RH  082%=      5-min Rain = 0
KGU1 111521Z 10003KT 03/00 A3011 RMK A01 T00330003  RH  082%=      5-min Rain = 0
KGU1 111522Z 11004KT 03/00 A3011 RMK A01 T00330004  RH  082%=      5-min Rain = 0
KGU1 111523Z 10003KT 03/01 A3011 RMK A01 T00340005  RH  082%=      5-min Rain = 0
KGU1 111524Z 10003KT 03/01 A3011 RMK A01 T00340006  RH  083%=      5-min Rain = 0
KGU1 111525Z 10004KT 04/01 A3011 RMK A01 T00350007  RH  083%=      5-min Rain = 0
KGU1 111526Z 11003KT 04/01 A3011 RMK A01 T00350007  RH  082%=      5-min Rain = 0
KGU1 111527Z 13003KT 04/01 A3011 RMK A01 T00360007  RH  082%=      5-min Rain = 0
KGU1 111528Z 12003KT 04/01 A3011 RMK A01 T00360006  RH  082%=      5-min Rain = 0
KGU1 111529Z 13001KT 04/01 A3011 RMK A01 T00360006  RH  082%=      5-min Rain = 0
KGU1 111530Z 13002KT 04/01 A3011 RMK A01 T00370007  RH  082%=      5-min Rain = 0
KGU1 111531Z 14001KT 04/01 A3011 RMK A01 T00370008  RH  082%=      5-min Rain = 0
KGU1 111532Z 14001KT 04/01 A3012 RMK A01 T00380009  RH  082%=      5-min Rain = 0
KGU1 111533Z 14001KT 04/01 A3012 RMK A01 T00380009  RH  082%=      5-min Rain = 0
KGU1 111534Z 23000KT 04/01 A3012 RMK A01 T00390009  RH  082%=      5-min Rain = 0
KGU1 111535Z 23001KT 04/01 A3012 RMK A01 T00390009  RH  081%=      5-min Rain = 0
KGU1 111536Z 22000KT 04/01 A3012 RMK A01 T00390009  RH  082%=      5-min Rain = 0
KGU1 111537Z 00000KT 04/01 A3012 RMK A01 T00400010  RH  082%=      5-min Rain = 0
KGU1 111538Z 00000KT 04/01 A3012 RMK A01 T00400009  RH  081%=      5-min Rain = 0
KGU1 111539Z 09001KT 04/01 A3012 RMK A01 T00410009  RH  081%=      5-min Rain = 0
KGU1 111540Z 07004KT 04/01 A3012 RMK A01 T00410009  RH  081%=      5-min Rain = 0
KGU1 111541Z 10003KT 04/01 A3012 RMK A01 T00400009  RH  081%=      5-min Rain = 0
KGU1 111542Z 10003KT 04/01 A3012 RMK A01 T00400010  RH  081%=      5-min Rain = 0
KGU1 111543Z 09002KT 04/01 A3013 RMK A01 T00400010  RH  081%=      5-min Rain = 0
KGU1 111544Z 09003KT 04/01 A3013 RMK A01 T00400010  RH  081%=      5-min Rain = 0
KGU1 111545Z 09002KT 04/01 A3013 RMK A01 T00400009  RH  081%=      5-min Rain = 0
KGU1 111546Z 12002KT 04/01 A3013 RMK A01 T00410010  RH  081%=      5-min Rain = 0
KGU1 111547Z 16003KT 04/01 A3013 RMK A01 T00410011  RH  082%=      5-min Rain = 0
KGU1 111548Z 19003KT 04/01 A3013 RMK A01 T00410012  RH  082%=      5-min Rain = 0
KGU1 111549Z 19003KT 04/01 A3013 RMK A01 T00410011  RH  082%=      5-min Rain = 0
KGU1 111550Z 21002KT 04/01 A3013 RMK A01 T00410012  RH  082%=      5-min Rain = 0
KGU1 111551Z 22004KT 04/01 A3014 RMK A01 T00410011  RH  082%=      5-min Rain = 0
KGU1 111552Z 22004KT 04/01 A3014 RMK A01 T00410010  RH  081%=      5-min Rain = 0
KGU1 111553Z 23003KT 04/01 A3014 RMK A01 T00400010  RH  082%=      5-min Rain = 0
KGU1 111554Z 24002KT 04/01 A3014 RMK A01 T00400011  RH  082%=      5-min Rain = 0
KGU1 111555Z 21003KT 04/01 A3014 RMK A01 T00400012  RH  083%=      5-min Rain = 0
KGU1 111556Z 19003KT 04/01 A3014 RMK A01 T00400013  RH  083%=      5-min Rain = 0
KGU1 111557Z 20003KT 04/01 A3014 RMK A01 T00400013  RH  084%=      5-min Rain = 0
KGU1 111558Z 19003KT 04/01 A3014 RMK A01 T00400014  RH  084%=      5-min Rain = 0
KGU1 111559Z 20003KT 04/01 A3014 RMK A01 T00400014  RH  085%=      5-min Rain = 0
KGU1 111600Z 16003KT 04/02 A3015 RMK A01 T00390015  RH  085%=      5-min Rain = 0
KGU1 111601Z 16003KT 04/02 A3015 RMK A01 T00390015  RH  085%=      5-min Rain = 0
KGU1 111602Z 15002KT 04/02 A3015 RMK A01 T00390015  RH  085%=      5-min Rain = 0
KGU1 111603Z 15002KT 04/02 A3014 RMK A01 T00390015  RH  085%=      5-min Rain = 0
KGU1 111604Z 16002KT 04/02 A3014 RMK A01 T00390015  RH  085%=      5-min Rain = 0
KGU1 111605Z 16002KT 04/02 A3015 RMK A01 T00400015  RH  085%=      5-min Rain = 0
KGU1 111606Z 15002KT 04/02 A3015 RMK A01 T00400016  RH  085%=      5-min Rain = 0
KGU1 111607Z 13003KT 04/02 A3015 RMK A01 T00410016  RH  085%=      5-min Rain = 0
KGU1 111608Z 13005KT 04/02 A3015 RMK A01 T00400017  RH  086%=      5-min Rain = 0
KGU1 111609Z 13004KT 04/02 A3015 RMK A01 T00390018  RH  087%=      5-min Rain = 0
KGU1 111610Z 12004KT 04/02 A3015 RMK A01 T00380019  RH  088%=      5-min Rain = 0
KGU1 111611Z 11004KT 04/02 A3015 RMK A01 T00380020  RH  089%=      5-min Rain = 0
KGU1 111612Z 10005KT 04/02 A3015 RMK A01 T00370020  RH  089%=      5-min Rain = 0
KGU1 111613Z 08004KT 04/02 A3015 RMK A01 T00370019  RH  090%=      5-min Rain = 0
KGU1 111614Z 09005KT 04/02 A3015 RMK A01 T00360020  RH  090%=      5-min Rain = 0
KGU1 111615Z 09006KT 04/02 A3015 RMK A01 T00360020  RH  090%=      5-min Rain = 0
KGU1 111616Z 11006KT 04/02 A3015 RMK A01 T00350019  RH  091%=      5-min Rain = 0
KGU1 111617Z 10007KT 04/02 A3015 RMK A01 T00350020  RH  091%=      5-min Rain = 0
KGU1 111618Z 10005KT 03/02 A3015 RMK A01 T00340020  RH  091%=      5-min Rain = 0
KGU1 111619Z 10007KT 04/02 A3016 RMK A01 T00350020  RH  091%=      5-min Rain = 0
KGU1 111620Z 10007KT 03/02 A3016 RMK A01 T00340020  RH  092%=      5-min Rain = 0
KGU1 111621Z 10007KT 03/02 A3016 RMK A01 T00340020  RH  092%=      5-min Rain = 0
KGU1 111622Z 08006KT 03/02 A3016 RMK A01 T00330020  RH  093%=      5-min Rain = 0
KGU1 111623Z 08008KT 03/02 A3016 RMK A01 T00320020  RH  093%=      5-min Rain = 0
KGU1 111624Z 08007KT 03/02 A3016 RMK A01 T00310020  RH  093%=      5-min Rain = 0
KGU1 111625Z 09007KT 03/02 A3017 RMK A01 T00310020  RH  094%=      5-min Rain = 0
KGU1 111626Z 08007KT 03/02 A3017 RMK A01 T00300020  RH  094%=      5-min Rain = 0
KGU1 111627Z 08007KT 03/02 A3017 RMK A01 T00300020  RH  094%=      5-min Rain = 0
KGU1 111628Z 09005KT 03/02 A3017 RMK A01 T00300020  RH  095%=      5-min Rain = 0
KGU1 111629Z 08008KT 03/02 A3017 RMK A01 T00300021  RH  095%=      5-min Rain = 0
KGU1 111630Z 09006KT 03/02 A3017 RMK A01 T00290020  RH  095%=      5-min Rain = 0
KGU1 111631Z 09010KT 03/02 A3017 RMK A01 T00290021  RH  095%=      5-min Rain = 0
KGU1 111632Z 09009KT 03/02 A3017 RMK A01 T00290020  RH  095%=      5-min Rain = 0
KGU1 111633Z 09008KT 03/02 A3017 RMK A01 T00290020  RH  095%=      5-min Rain = 0
KGU1 111634Z 09009KT 03/02 A3017 RMK A01 T00290020  RH  095%=      5-min Rain = 0
KGU1 111635Z 08009KT 03/02 A3017 RMK A01 T00290021  RH  096%=      5-min Rain = 0
KGU1 111636Z 08007KT 03/02 A3018 RMK A01 T00290021  RH  096%=      5-min Rain = 0
KGU1 111637Z 09008KT 03/02 A3018 RMK A01 T00290021  RH  096%=      5-min Rain = 0
KGU1 111638Z 09008KT 03/02 A3018 RMK A01 T00290021  RH  096%=      5-min Rain = 0
KGU1 111639Z 09008KT 03/02 A3018 RMK A01 T00280021  RH  096%=      5-min Rain = 0
KGU1 111640Z 10007KT 03/02 A3018 RMK A01 T00280021  RH  096%=      5-min Rain = 0
KGU1 111641Z 10007KT 03/02 A3018 RMK A01 T00280021  RH  096%=      5-min Rain = 0
KGU1 111642Z 10006KT 03/02 A3018 RMK A01 T00280021  RH  096%=      5-min Rain = 0
KGU1 111643Z 09006KT 03/02 A3018 RMK A01 T00280021  RH  096%=      5-min Rain = 0
KGU1 111644Z 10006KT 03/02 A3018 RMK A01 T00280021  RH  096%=      5-min Rain = 0
KGU1 111645Z 09006KT 03/02 A3018 RMK A01 T00280022  RH  097%=      5-min Rain = 0
KGU1 111646Z 09004KT 03/02 A3018 RMK A01 T00290022  RH  097%=      5-min Rain = 0
KGU1 111647Z 08006KT 03/02 A3018 RMK A01 T00290023  RH  097%=      5-min Rain = 0
KGU1 111648Z 08006KT 03/02 A3018 RMK A01 T00290023  RH  097%=      5-min Rain = 0
KGU1 111649Z 08008KT 03/02 A3018 RMK A01 T00300023  RH  097%=      5-min Rain = 0
KGU1 111650Z 09007KT 03/02 A3018 RMK A01 T00300024  RH  097%=      5-min Rain = 0
KGU1 111651Z 08007KT 03/02 A3018 RMK A01 T00310024  RH  097%=      5-min Rain = 0
KGU1 111652Z 08008KT 03/03 A3018 RMK A01 T00310025  RH  097%=      5-min Rain = 0
KGU1 111653Z 07007KT 03/02 A3019 RMK A01 T00300024  RH  097%=      5-min Rain = 0
KGU1 111654Z 09007KT 03/02 A3019 RMK A01 T00310024  RH  097%=      5-min Rain = 0
KGU1 111655Z 09008KT 03/03 A3019 RMK A01 T00310025  RH  097%=      5-min Rain = 0
KGU1 111656Z 08009KT 03/03 A3019 RMK A01 T00310025  RH  097%=      5-min Rain = 0
KGU1 111657Z 08008KT 03/03 A3019 RMK A01 T00310025  RH  097%=      5-min Rain = 0
KGU1 111658Z 09008KT 03/02 A3019 RMK A01 T00310024  RH  097%=      5-min Rain = 0
KGU1 111659Z 08008KT 03/02 A3019 RMK A01 T00310024  RH  096%=      5-min Rain = 0
KGU1 111700Z 08007KT 03/02 A3019 RMK A01 T00310024  RH  096%=      5-min Rain = 0
KGU1 111701Z 08009KT 03/02 A3019 RMK A01 T00310024  RH  096%=      5-min Rain = 0
KGU1 111702Z 08008KT 03/02 A3019 RMK A01 T00310024  RH  096%=      5-min Rain = 0
KGU1 111703Z 09006KT 03/02 A3019 RMK A01 T00320024  RH  096%=      5-min Rain = 0
KGU1 111704Z 09007KT 03/02 A3019 RMK A01 T00320024  RH  096%=      5-min Rain = 0
KGU1 111705Z 08006KT 03/02 A3019 RMK A01 T00330024  RH  095%=      5-min Rain = 0
KGU1 111706Z 08006KT 03/03 A3019 RMK A01 T00340025  RH  095%=      5-min Rain = 0
KGU1 111707Z 08005KT 03/02 A3019 RMK A01 T00340024  RH  094%=      5-min Rain = 0
KGU1 111708Z 06007KT 03/02 A3019 RMK A01 T00340024  RH  094%=      5-min Rain = 0
KGU1 111709Z 06007KT 03/02 A3019 RMK A01 T00340022  RH  093%=      5-min Rain = 0
KGU1 111710Z 07006KT 03/02 A302 RMK A01 T00330021  RH  093%=      5-min Rain = 0
KGU1 111711Z 07006KT 03/02 A302 RMK A01 T00330020  RH  093%=      5-min Rain = 0
KGU1 111712Z 07004KT 03/02 A302 RMK A01 T00320020  RH  093%=      5-min Rain = 0
KGU1 111713Z 05006KT 03/02 A302 RMK A01 T00320021  RH  093%=      5-min Rain = 0
KGU1 111714Z 04006KT 03/02 A302 RMK A01 T00310020  RH  093%=      5-min Rain = 0
KGU1 111715Z 05006KT 03/02 A302 RMK A01 T00310020  RH  093%=      5-min Rain = 0
KGU1 111716Z 07006KT 03/02 A302 RMK A01 T00310019  RH  093%=      5-min Rain = 0
KGU1 111717Z 08006KT 03/02 A302 RMK A01 T00310020  RH  093%=      5-min Rain = 0
KGU1 111718Z 08006KT 03/02 A302 RMK A01 T00310020  RH  093%=      5-min Rain = 0
KGU1 111719Z 08006KT 03/02 A302 RMK A01 T00320020  RH  093%=      5-min Rain = 0
KGU1 111720Z 09006KT 03/02 A302 RMK A01 T00320020  RH  093%=      5-min Rain = 0
KGU1 111721Z 10006KT 03/02 A302 RMK A01 T00320021  RH  093%=      5-min Rain = 0
KGU1 111722Z 08007KT 03/02 A302 RMK A01 T00330021  RH  093%=      5-min Rain = 0
KGU1 111723Z 08008KT 03/02 A302 RMK A01 T00330021  RH  093%=      5-min Rain = 0
KGU1 111724Z 08007KT 03/02 A302 RMK A01 T00330020  RH  092%=      5-min Rain = 0
KGU1 111725Z 07008KT 03/02 A302 RMK A01 T00330019  RH  091%=      5-min Rain = 0
KGU1 111726Z 07008KT 03/02 A302 RMK A01 T00330016  RH  090%=      5-min Rain = 0
KGU1 111727Z 08006KT 03/02 A302 RMK A01 T00320016  RH  090%=      5-min Rain = 0
KGU1 111728Z 08006KT 03/02 A302 RMK A01 T00330017  RH  090%=      5-min Rain = 0
KGU1 111729Z 09006KT 03/02 A302 RMK A01 T00330017  RH  091%=      5-min Rain = 0
KGU1 111730Z 08006KT 03/02 A302 RMK A01 T00340017  RH  090%=      5-min Rain = 0
KGU1 111731Z 09008KT 03/02 A302 RMK A01 T00340017  RH  089%=      5-min Rain = 0
KGU1 111732Z 10008KT 03/02 A302 RMK A01 T00340016  RH  089%=      5-min Rain = 0
KGU1 111733Z 09008KT 03/02 A302 RMK A01 T00340016  RH  089%=      5-min Rain = 0
KGU1 111734Z 09008KT 04/02 A302 RMK A01 T00350016  RH  089%=      5-min Rain = 0
KGU1 111735Z 08006KT 04/02 A3021 RMK A01 T00350015  RH  088%=      5-min Rain = 0
KGU1 111736Z 08008KT 04/02 A3021 RMK A01 T00350015  RH  088%=      5-min Rain = 0
KGU1 111737Z 08008KT 04/02 A3021 RMK A01 T00360015  RH  088%=      5-min Rain = 0
KGU1 111738Z 05006KT 04/02 A3021 RMK A01 T00360015  RH  088%=      5-min Rain = 0
KGU1 111739Z 06006KT 04/02 A302 RMK A01 T00360015  RH  087%=      5-min Rain = 0
KGU1 111740Z 07009KT 04/02 A302 RMK A01 T00370015  RH  087%=      5-min Rain = 0
KGU1 111741Z 07008KT 04/01 A302 RMK A01 T00360012  RH  085%=      5-min Rain = 0
KGU1 111742Z 07007KT 04/01 A3021 RMK A01 T00360013  RH  086%=      5-min Rain = 0
KGU1 111743Z 05009KT 04/01 A3021 RMK A01 T00370012  RH  085%=      5-min Rain = 0
KGU1 111744Z 06010KT 04/01 A3021 RMK A01 T00370010  RH  084%=      5-min Rain = 0
KGU1 111745Z 08009KT 04/01 A3021 RMK A01 T00370011  RH  085%=      5-min Rain = 0
KGU1 111746Z 06008KT 04/01 A3021 RMK A01 T00370011  RH  084%=      5-min Rain = 0
KGU1 111747Z 05009KT 04/01 A3021 RMK A01 T00370010  RH  083%=      5-min Rain = 0
KGU1 111748Z 06010KT 04/01 A3021 RMK A01 T00360008  RH  083%=      5-min Rain = 0
KGU1 111749Z 06010KT 04/01 A3021 RMK A01 T00350009  RH  084%=      5-min Rain = 0
KGU1 111750Z 06008KT 04/01 A3021 RMK A01 T00350009  RH  084%=      5-min Rain = 0
KGU1 111751Z 05007KT 03/01 A3021 RMK A01 T00340009  RH  085%=      5-min Rain = 0
KGU1 111752Z 07006KT 03/01 A3021 RMK A01 T00340010  RH  085%=      5-min Rain = 0
KGU1 111753Z 08008KT 04/01 A3021 RMK A01 T00350008  RH  084%=      5-min Rain = 0
KGU1 111754Z 07007KT 04/01 A3021 RMK A01 T00350009  RH  084%=      5-min Rain = 0
KGU1 111755Z 06006KT 04/01 A3021 RMK A01 T00350009  RH  084%=      5-min Rain = 0
KGU1 111756Z 05006KT 04/01 A3021 RMK A01 T00350008  RH  083%=      5-min Rain = 0
KGU1 111757Z 06005KT 04/01 A3021 RMK A01 T00350007  RH  083%=      5-min Rain = 0
KGU1 111758Z 04005KT 04/01 A3021 RMK A01 T00360008  RH  083%=      5-min Rain = 0
KGU1 111759Z 06004KT 04/01 A3021 RMK A01 T00370008  RH  083%=      5-min Rain = 0
KGU1 111800Z 06006KT 04/01 A3021 RMK A01 T00380008  RH  082%=      5-min Rain = 0
KGU1 111801Z 07005KT 04/01 A3022 RMK A01 T00390006  RH  080%=      5-min Rain = 0
KGU1 111802Z 06004KT 04/01 A3022 RMK A01 T00390005  RH  079%=      5-min Rain = 0
KGU1 111803Z 03006KT 04/00 A3022 RMK A01 T00400003  RH  078%=      5-min Rain = 0
KGU1 111804Z 04004KT 04/00 A3021 RMK A01 T00410003  RH  077%=      5-min Rain = 0
KGU1 111805Z 04006KT 04/00 A3021 RMK A01 T00420000  RH  075%=      5-min Rain = 0
KGU1 111806Z 03010KT 04/M00 A3022 RMK A01 T00441003  RH  073%=      5-min Rain = 0
KGU1 111807Z 02009KT 04/M00 A3022 RMK A01 T00441004  RH  071%=      5-min Rain = 0
KGU1 111808Z 02007KT 05/M00 A3022 RMK A01 T00451004  RH  071%=      5-min Rain = 0
KGU1 111809Z 02009KT 05/M00 A3022 RMK A01 T00461002  RH  072%=      5-min Rain = 0
KGU1 111810Z 03009KT 05/M00 A3022 RMK A01 T00471002  RH  071%=      5-min Rain = 0
KGU1 111811Z 04011KT 05/00 A3022 RMK A01 T00460003  RH  074%=      5-min Rain = 0
KGU1 111812Z 04010KT 04/00 A3022 RMK A01 T00440004  RH  076%=      5-min Rain = 0
KGU1 111813Z 04010G15KT 04/01 A3022 RMK A01 T00420005  RH  078%=      5-min Rain = 0
KGU1 111814Z 04012KT 04/01 A3022 RMK A01 T00400005  RH  079%=      5-min Rain = 0
KGU1 111815Z 05012KT 04/01 A3022 RMK A01 T00390005  RH  080%=      5-min Rain = 0
KGU1 111816Z 05010KT 04/01 A3022 RMK A01 T00380005  RH  080%=      5-min Rain = 0
KGU1 111817Z 04009KT 04/01 A3022 RMK A01 T00380006  RH  080%=      5-min Rain = 0
KGU1 111818Z 03010KT 04/00 A3022 RMK A01 T00380003  RH  079%=      5-min Rain = 0
KGU1 111819Z 05013KT 04/00 A3022 RMK A01 T00380003  RH  079%=      5-min Rain = 0
KGU1 111820Z 04011KT 04/00 A3022 RMK A01 T00390002  RH  078%=      5-min Rain = 0
KGU1 111821Z 04009KT 04/00 A3022 RMK A01 T00380002  RH  078%=      5-min Rain = 0
KGU1 111822Z 05008KT 04/00 A3022 RMK A01 T00380003  RH  079%=      5-min Rain = 0
KGU1 111823Z 05006KT 04/00 A3022 RMK A01 T00390004  RH  079%=      5-min Rain = 0
KGU1 111824Z 04010KT 04/00 A3022 RMK A01 T00390000  RH  076%=      5-min Rain = 0
KGU1 111825Z 04009KT 04/M00 A3022 RMK A01 T00401002  RH  075%=      5-min Rain = 0
KGU1 111826Z 04010KT 04/M00 A3022 RMK A01 T00401003  RH  074%=      5-min Rain = 0
KGU1 111827Z 04013KT 04/M01 A3022 RMK A01 T00411005  RH  073%=      5-min Rain = 0
KGU1 111828Z 04010KT 04/M01 A3022 RMK A01 T00411006  RH  072%=      5-min Rain = 0
KGU1 111829Z 04011KT 04/M01 A3022 RMK A01 T00411005  RH  073%=      5-min Rain = 0
KGU1 111830Z 05010KT 04/M01 A3022 RMK A01 T00411005  RH  073%=      5-min Rain = 0
KGU1 111831Z 04011KT 04/M00 A3022 RMK A01 T00411003  RH  074%=      5-min Rain = 0
KGU1 111832Z 03009KT 04/M00 A3022 RMK A01 T00411004  RH  073%=      5-min Rain = 0
KGU1 111833Z 02010KT 04/M01 A3022 RMK A01 T00411005  RH  073%=      5-min Rain = 0
KGU1 111834Z 04011KT 04/M01 A3022 RMK A01 T00411006  RH  073%=      5-min Rain = 0
KGU1 111835Z 04010KT 04/M01 A3022 RMK A01 T00411006  RH  072%=      5-min Rain = 0
KGU1 111836Z 04015KT 04/M01 A3022 RMK A01 T00411007  RH  072%=      5-min Rain = 0
KGU1 111837Z 03012KT 04/M01 A3022 RMK A01 T00411007  RH  072%=      5-min Rain = 0
KGU1 111838Z 02008KT 04/M01 A3022 RMK A01 T00401009  RH  071%=      5-min Rain = 0
KGU1 111839Z 02010KT 04/M01 A3022 RMK A01 T00401007  RH  072%=      5-min Rain = 0
KGU1 111840Z 02010KT 04/M01 A3022 RMK A01 T00411007  RH  072%=      5-min Rain = 0
KGU1 111841Z 04013KT 04/M01 A3022 RMK A01 T00411008  RH  071%=      5-min Rain = 0
KGU1 111842Z 04012KT 04/M01 A3022 RMK A01 T00401008  RH  072%=      5-min Rain = 0
KGU1 111843Z 04013KT 04/M01 A3022 RMK A01 T00391009  RH  072%=      5-min Rain = 0
KGU1 111844Z 04014KT 04/M01 A3022 RMK A01 T00371008  RH  073%=      5-min Rain = 0
KGU1 111845Z 04011KT 04/M01 A3023 RMK A01 T00371007  RH  074%=      5-min Rain = 0
KGU1 111846Z 02010KT 04/M01 A3023 RMK A01 T00381008  RH  073%=      5-min Rain = 0
KGU1 111847Z 02009KT 04/M01 A3023 RMK A01 T00381007  RH  073%=      5-min Rain = 0
KGU1 111848Z 04013KT 04/M01 A3023 RMK A01 T00391008  RH  072%=      5-min Rain = 0
KGU1 111849Z 04010KT 04/M01 A3023 RMK A01 T00381009  RH  072%=      5-min Rain = 0
KGU1 111850Z 03008G13KT 04/M01 A3023 RMK A01 T00381008  RH  073%=      5-min Rain = 0
KGU1 111851Z 04011KT 04/M01 A3023 RMK A01 T00391009  RH  072%=      5-min Rain = 0
KGU1 111852Z 05010KT 04/M01 A3023 RMK A01 T00401010  RH  071%=      5-min Rain = 0
KGU1 111853Z 04009KT 04/M01 A3023 RMK A01 T00401010  RH  070%=      5-min Rain = 0
KGU1 111854Z 05007KT 04/M01 A3023 RMK A01 T00401010  RH  071%=      5-min Rain = 0
KGU1 111855Z 04010KT 04/M01 A3022 RMK A01 T00401014  RH  069%=      5-min Rain = 0
KGU1 111856Z 04010KT 04/M01 A3023 RMK A01 T00401013  RH  069%=      5-min Rain = 0
KGU1 111857Z 05008KT 04/M01 A3023 RMK A01 T00411013  RH  069%=      5-min Rain = 0
KGU1 111858Z 05007KT 04/M01 A3023 RMK A01 T00421014  RH  068%=      5-min Rain = 0
KGU1 111859Z 03008KT 04/M01 A3022 RMK A01 T00411013  RH  068%=      5-min Rain = 0
KGU1 111900Z 06009KT 04/M01 A3022 RMK A01 T00421014  RH  068%=      5-min Rain = 0
KGU1 111901Z 05013KT 04/M02 A3022 RMK A01 T00421015  RH  067%=      5-min Rain = 0
KGU1 111902Z 04011KT 04/M02 A3023 RMK A01 T00421018  RH  066%=      5-min Rain = 0
KGU1 111903Z 06009KT 04/M02 A3022 RMK A01 T00411018  RH  066%=      5-min Rain = 0
KGU1 111904Z 06011KT 04/M02 A3022 RMK A01 T00421019  RH  066%=      5-min Rain = 0
KGU1 111905Z 05011KT 04/M02 A3022 RMK A01 T00421019  RH  065%=      5-min Rain = 0
KGU1 111906Z 07010KT 05/M02 A3022 RMK A01 T00451017  RH  065%=      5-min Rain = 0
KGU1 111907Z 07010KT 05/M02 A3022 RMK A01 T00471016  RH  064%=      5-min Rain = 0
KGU1 111908Z 05008KT 05/M02 A3022 RMK A01 T00491016  RH  063%=      5-min Rain = 0
KGU1 111909Z 07009KT 05/M02 A3022 RMK A01 T00501018  RH  062%=      5-min Rain = 0
KGU1 111910Z 08008KT 05/M02 A3022 RMK A01 T00501016  RH  063%=      5-min Rain = 0
KGU1 111911Z 05011KT 05/M02 A3022 RMK A01 T00531015  RH  062%=      5-min Rain = 0
KGU1 111912Z 03007KT 05/M02 A3022 RMK A01 T00541021  RH  059%=      5-min Rain = 0
KGU1 111913Z 04007KT 05/M02 A3022 RMK A01 T00541017  RH  061%=      5-min Rain = 0
KGU1 111914Z 06011G17KT 06/M02 A3022 RMK A01 T00561019  RH  059%=      5-min Rain = 0
KGU1 111915Z 05010KT 06/M02 A3022 RMK A01 T00561021  RH  058%=      5-min Rain = 0
KGU1 111916Z 05009KT 06/M02 A3022 RMK A01 T00561022  RH  058%=      5-min Rain = 0
KGU1 111917Z 07009KT 06/M02 A3022 RMK A01 T00581017  RH  059%=      5-min Rain = 0
KGU1 111918Z 06008G13KT 06/M02 A3022 RMK A01 T00601021  RH  057%=      5-min Rain = 0
KGU1 111919Z 07011KT 06/M03 A3022 RMK A01 T00601025  RH  055%=      5-min Rain = 0
KGU1 111920Z 07009KT 06/M03 A3022 RMK A01 T00561025  RH  056%=      5-min Rain = 0
KGU1 111921Z 06009KT 05/M02 A3022 RMK A01 T00541024  RH  058%=      5-min Rain = 0
KGU1 111922Z 04008KT 05/M02 A3022 RMK A01 T00541023  RH  058%=      5-min Rain = 0
KGU1 111923Z 03008KT 05/M02 A3022 RMK A01 T00531023  RH  058%=      5-min Rain = 0
KGU1 111924Z 05008KT 05/M02 A3022 RMK A01 T00541021  RH  059%=      5-min Rain = 0
KGU1 111925Z 05008KT 05/M02 A3022 RMK A01 T00541023  RH  058%=      5-min Rain = 0
KGU1 111926Z 06009KT 05/M02 A3022 RMK A01 T00541022  RH  058%=      5-min Rain = 0
KGU1 111927Z 07009KT 05/M02 A3022 RMK A01 T00541024  RH  058%=      5-min Rain = 0
KGU1 111928Z 05007KT 05/M02 A3022 RMK A01 T00541020  RH  059%=      5-min Rain = 0
KGU1 111929Z 05009KT 06/M02 A3022 RMK A01 T00551021  RH  059%=      5-min Rain = 0
KGU1 111930Z 06009KT 06/M03 A3022 RMK A01 T00561025  RH  057%=      5-min Rain = 0
KGU1 111931Z 07010KT 06/M03 A3022 RMK A01 T00551025  RH  057%=      5-min Rain = 0
KGU1 111932Z 06009KT 06/M03 A3022 RMK A01 T00561025  RH  057%=      5-min Rain = 0
KGU1 111933Z 08011KT 06/M03 A3022 RMK A01 T00581025  RH  056%=      5-min Rain = 0
KGU1 111934Z 07008KT 06/M02 A3022 RMK A01 T00581024  RH  057%=      5-min Rain = 0
KGU1 111935Z 06009KT 06/M02 A3022 RMK A01 T00601022  RH  056%=      5-min Rain = 0
KGU1 111936Z 05011KT 06/M02 A3022 RMK A01 T00631022  RH  055%=      5-min Rain = 0
KGU1 111937Z 06012KT 06/M03 A3022 RMK A01 T00641025  RH  054%=      5-min Rain = 0
KGU1 111938Z 05009KT 06/M03 A3022 RMK A01 T00611029  RH  053%=      5-min Rain = 0
KGU1 111939Z 04005KT 06/M03 A3022 RMK A01 T00571030  RH  054%=      5-min Rain = 0
KGU1 111940Z 06005KT 06/M03 A3022 RMK A01 T00561025  RH  057%=      5-min Rain = 0
KGU1 111941Z 07007KT 06/M03 A3022 RMK A01 T00571029  RH  055%=      5-min Rain = 0
KGU1 111942Z 04011KT 06/M03 A3022 RMK A01 T00591026  RH  055%=      5-min Rain = 0
KGU1 111943Z 04009KT 06/M03 A3022 RMK A01 T00591027  RH  054%=      5-min Rain = 0
KGU1 111944Z 03009KT 06/M03 A3022 RMK A01 T00591027  RH  054%=      5-min Rain = 0
KGU1 111945Z 04006KT 06/M03 A3022 RMK A01 T00591026  RH  055%=      5-min Rain = 0
KGU1 111946Z 03006G11KT 06/M03 A3022 RMK A01 T00591029  RH  054%=      5-min Rain = 0
KGU1 111947Z 01005KT 06/M03 A3022 RMK A01 T00571029  RH  054%=      5-min Rain = 0
KGU1 111948Z 02009KT 06/M03 A3022 RMK A01 T00571028  RH  055%=      5-min Rain = 0
KGU1 111949Z 03009KT 06/M03 A3022 RMK A01 T00571028  RH  055%=      5-min Rain = 0
KGU1 111950Z 03007KT 06/M03 A3022 RMK A01 T00571026  RH  056%=      5-min Rain = 0
KGU1 111951Z 03007KT 06/M03 A3022 RMK A01 T00581025  RH  056%=      5-min Rain = 0
KGU1 111952Z 03007KT 06/M03 A3022 RMK A01 T00591027  RH  055%=      5-min Rain = 0
KGU1 111953Z 01005KT 06/M03 A3022 RMK A01 T00591028  RH  054%=      5-min Rain = 0
KGU1 111954Z 04002KT 06/M03 A3022 RMK A01 T00591027  RH  055%=      5-min Rain = 0
KGU1 111955Z 04004KT 06/M03 A3022 RMK A01 T00601028  RH  054%=      5-min Rain = 0
KGU1 111956Z 06004KT 06/M02 A3022 RMK A01 T00621024  RH  054%=      5-min Rain = 0
KGU1 111957Z 06005KT 06/M03 A3022 RMK A01 T00631028  RH  053%=      5-min Rain = 0
KGU1 111958Z 05005KT 06/M03 A3022 RMK A01 T00631028  RH  053%=      5-min Rain = 0
KGU1 111959Z 04006KT 06/M03 A3022 RMK A01 T00621027  RH  054%=      5-min Rain = 0
KGU1 112000Z 02010KT 06/M03 A3022 RMK A01 T00611026  RH  054%=      5-min Rain = 0
KGU1 112001Z 03009KT 06/M03 A3022 RMK A01 T00591030  RH  053%=      5-min Rain = 0
KGU1 112002Z 04008KT 06/M03 A3022 RMK A01 T00581029  RH  054%=      5-min Rain = 0
KGU1 112003Z 04008KT 06/M03 A3022 RMK A01 T00581028  RH  054%=      5-min Rain = 0
KGU1 112004Z 02005KT 06/M03 A3022 RMK A01 T00591030  RH  053%=      5-min Rain = 0
KGU1 112005Z 03007KT 06/M03 A3022 RMK A01 T00611025  RH  055%=      5-min Rain = 0
KGU1 112006Z 04006KT 06/M03 A3022 RMK A01 T00631025  RH  054%=      5-min Rain = 0
KGU1 112007Z 06007KT 07/M02 A3022 RMK A01 T00651024  RH  054%=      5-min Rain = 0
KGU1 112008Z 07005KT 07/M02 A3022 RMK A01 T00671021  RH  054%=      5-min Rain = 0
KGU1 112009Z 04007KT 07/M03 A3022 RMK A01 T00681026  RH  052%=      5-min Rain = 0
KGU1 112010Z 06007KT 07/M02 A3022 RMK A01 T00701018  RH  054%=      5-min Rain = 0
KGU1 112011Z 07009KT 07/M02 A3022 RMK A01 T00721022  RH  052%=      5-min Rain = 0
KGU1 112012Z 08010KT 07/M02 A3022 RMK A01 T00721022  RH  052%=      5-min Rain = 0
KGU1 112013Z 08008KT 07/M02 A3022 RMK A01 T00701022  RH  053%=      5-min Rain = 0
KGU1 112014Z 07008KT 07/M02 A3022 RMK A01 T00711015  RH  055%=      5-min Rain = 0
KGU1 112015Z 05012G17KT 07/M02 A3022 RMK A01 T00741019  RH  052%=      5-min Rain = 0
KGU1 112016Z 05012KT 07/M02 A3022 RMK A01 T00741020  RH  052%=      5-min Rain = 0
KGU1 112017Z 06014KT 07/M02 A3022 RMK A01 T00731020  RH  052%=      5-min Rain = 0
KGU1 112018Z 06008KT 07/M02 A3022 RMK A01 T00721020  RH  053%=      5-min Rain = 0
KGU1 112019Z 07011KT 07/M02 A3022 RMK A01 T00711021  RH  053%=      5-min Rain = 0
KGU1 112020Z 06011KT 07/M02 A3022 RMK A01 T00711023  RH  051%=      5-min Rain = 0
KGU1 112021Z 06010KT 07/M03 A3022 RMK A01 T00701028  RH  050%=      5-min Rain = 0
KGU1 112022Z 07011KT 07/M03 A3022 RMK A01 T00691031  RH  049%=      5-min Rain = 0
KGU1 112023Z 08007KT 07/M03 A3022 RMK A01 T00691029  RH  050%=      5-min Rain = 0
KGU1 112024Z 06009KT 07/M03 A3022 RMK A01 T00701030  RH  050%=      5-min Rain = 0
KGU1 112025Z 05010KT 07/M03 A3022 RMK A01 T00701031  RH  049%=      5-min Rain = 0
KGU1 112026Z 04009KT 07/M04 A3022 RMK A01 T00701035  RH  048%=      5-min Rain = 0
KGU1 112027Z 06008KT 07/M03 A3022 RMK A01 T00691032  RH  049%=      5-min Rain = 0
KGU1 112028Z 06009G14KT 07/M04 A3022 RMK A01 T00691036  RH  047%=      5-min Rain = 0
KGU1 112029Z 05010KT 07/M04 A3023 RMK A01 T00671036  RH  048%=      5-min Rain = 0
KGU1 112030Z 04007KT 07/M04 A3023 RMK A01 T00651035  RH  049%=      5-min Rain = 0
KGU1 112031Z 03009KT 06/M04 A3023 RMK A01 T00641043  RH  047%=      5-min Rain = 0
KGU1 112032Z 06008KT 06/M04 A3023 RMK A01 T00631043  RH  047%=      5-min Rain = 0
KGU1 112033Z 05009KT 06/M05 A3023 RMK A01 T00621051  RH  045%=      5-min Rain = 0
KGU1 112034Z 07010KT 06/M06 A3023 RMK A01 T00601057  RH  043%=      5-min Rain = 0
KGU1 112035Z 06008KT 06/M06 A3023 RMK A01 T00591057  RH  044%=      5-min Rain = 0
KGU1 112036Z 08009KT 06/M06 A3023 RMK A01 T00611059  RH  042%=      5-min Rain = 0
KGU1 112037Z 08012KT 06/M07 A3023 RMK A01 T00631068  RH  039%=      5-min Rain = 0
KGU1 112038Z 08012KT 06/M07 A3023 RMK A01 T00631072  RH  038%=      5-min Rain = 0
KGU1 112039Z 08012KT 06/M07 A3023 RMK A01 T00641069  RH  038%=      5-min Rain = 0
KGU1 112040Z 08009KT 07/M07 A3023 RMK A01 T00661067  RH  039%=      5-min Rain = 0
KGU1 112041Z 08010KT 07/M07 A3023 RMK A01 T00691068  RH  038%=      5-min Rain = 0
KGU1 112042Z 07009KT 07/M07 A3023 RMK A01 T00691072  RH  036%=      5-min Rain = 0
KGU1 112043Z 07011KT 07/M07 A3023 RMK A01 T00691073  RH  036%=      5-min Rain = 0
KGU1 112044Z 06009KT 07/M07 A3023 RMK A01 T00691069  RH  037%=      5-min Rain = 0
KGU1 112045Z 04010KT 07/M07 A3023 RMK A01 T00701065  RH  038%=      5-min Rain = 0
KGU1 112046Z 04007KT 07/M07 A3023 RMK A01 T00701070  RH  037%=      5-min Rain = 0
KGU1 112047Z 07007KT 07/M07 A3023 RMK A01 T00691073  RH  036%=      5-min Rain = 0
KGU1 112048Z 08009KT 07/M08 A3023 RMK A01 T00681082  RH  034%=      5-min Rain = 0
KGU1 112049Z 08009KT 07/M08 A3023 RMK A01 T00681083  RH  034%=      5-min Rain = 0
KGU1 112050Z 07011KT 07/M08 A3023 RMK A01 T00691078  RH  035%=      5-min Rain = 0
KGU1 112051Z 07009KT 07/M08 A3023 RMK A01 T00701078  RH  035%=      5-min Rain = 0
KGU1 112052Z 06006KT 07/M08 A3023 RMK A01 T00711078  RH  034%=      5-min Rain = 0
KGU1 112053Z 08005KT 07/M08 A3023 RMK A01 T00731075  RH  035%=      5-min Rain = 0
KGU1 112054Z 08007KT 07/M08 A3023 RMK A01 T00741077  RH  034%=      5-min Rain = 0
KGU1 112055Z 07007KT 07/M08 A3023 RMK A01 T00721082  RH  033%=      5-min Rain = 0
KGU1 112056Z 08008KT 07/M08 A3023 RMK A01 T00701076  RH  035%=      5-min Rain = 0
KGU1 112057Z 08009KT 07/M08 A3023 RMK A01 T00711081  RH  033%=      5-min Rain = 0
KGU1 112058Z 08008KT 07/M08 A3023 RMK A01 T00691084  RH  033%=      5-min Rain = 0
KGU1 112059Z 09009KT 07/M08 A3023 RMK A01 T00681081  RH  034%=      5-min Rain = 0
KGU1 112100Z 09010KT 07/M08 A3023 RMK A01 T00671079  RH  035%=      5-min Rain = 0
KGU1 112101Z 09009KT 07/M08 A3023 RMK A01 T00661078  RH  035%=      5-min Rain = 0
KGU1 112102Z 09011KT 07/M08 A3023 RMK A01 T00661081  RH  034%=      5-min Rain = 0
KGU1 112103Z 09012KT 06/M09 A3023 RMK A01 T00641085  RH  034%=      5-min Rain = 0
KGU1 112104Z 07008KT 06/M08 A3023 RMK A01 T00641081  RH  035%=      5-min Rain = 0
KGU1 112105Z 09006KT 07/M08 A3023 RMK A01 T00661075  RH  036%=      5-min Rain = 0
KGU1 112106Z 11008KT 07/M08 A3023 RMK A01 T00681078  RH  035%=      5-min Rain = 0
KGU1 112107Z 09004KT 07/M08 A3023 RMK A01 T00681082  RH  034%=      5-min Rain = 0
KGU1 112108Z 09008KT 07/M08 A3023 RMK A01 T00671079  RH  035%=      5-min Rain = 0
KGU1 112109Z 07006KT 07/M08 A3023 RMK A01 T00681080  RH  034%=      5-min Rain = 0
KGU1 112110Z 08006KT 07/M07 A3023 RMK A01 T00681074  RH  036%=      5-min Rain = 0
KGU1 112111Z 06006KT 07/M08 A3023 RMK A01 T00691078  RH  035%=      5-min Rain = 0
KGU1 112112Z 07007KT 07/M08 A3023 RMK A01 T00681079  RH  035%=      5-min Rain = 0
KGU1 112113Z 09007KT 06/M08 A3023 RMK A01 T00641077  RH  036%=      5-min Rain = 0
KGU1 112114Z 08008KT 06/M07 A3023 RMK A01 T00611071  RH  038%=      5-min Rain = 0
KGU1 112115Z 08008KT 06/M07 A3023 RMK A01 T00601072  RH  039%=      5-min Rain = 0
KGU1 112116Z 09009KT 06/M08 A3023 RMK A01 T00591075  RH  038%=      5-min Rain = 0
KGU1 112117Z 09008KT 06/M08 A3023 RMK A01 T00581077  RH  038%=      5-min Rain = 0
KGU1 112118Z 09005KT 06/M08 A3023 RMK A01 T00571078  RH  038%=      5-min Rain = 0
KGU1 112119Z 11005KT 06/M08 A3023 RMK A01 T00561075  RH  039%=      5-min Rain = 0
KGU1 112120Z 12005KT 06/M07 A3023 RMK A01 T00571066  RH  041%=      5-min Rain = 0
KGU1 112121Z 12006KT 06/M07 A3023 RMK A01 T00601074  RH  038%=      5-min Rain = 0
KGU1 112122Z 11005KT 06/M08 A3023 RMK A01 T00611076  RH  037%=      5-min Rain = 0
KGU1 112123Z 09009KT 06/M07 A3023 RMK A01 T00621070  RH  039%=      5-min Rain = 0
KGU1 112124Z 09008KT 06/M08 A3023 RMK A01 T00631076  RH  037%=      5-min Rain = 0
KGU1 112125Z 07005KT 06/M07 A3023 RMK A01 T00641072  RH  038%=      5-min Rain = 0
KGU1 112126Z 08004KT 07/M07 A3023 RMK A01 T00651067  RH  039%=      5-min Rain = 0
KGU1 112127Z 09006KT 07/M07 A3023 RMK A01 T00681068  RH  038%=      5-min Rain = 0
KGU1 112128Z 08004KT 07/M07 A3023 RMK A01 T00691066  RH  038%=      5-min Rain = 0
KGU1 112129Z 08006KT 07/M07 A3023 RMK A01 T00701066  RH  038%=      5-min Rain = 0
KGU1 112130Z 09006KT 07/M07 A3023 RMK A01 T00701068  RH  037%=      5-min Rain = 0
KGU1 112131Z 06005KT 07/M07 A3023 RMK A01 T00691071  RH  036%=      5-min Rain = 0
KGU1 112132Z 06005KT 07/M07 A3023 RMK A01 T00681070  RH  037%=      5-min Rain = 0
KGU1 112133Z 07006KT 07/M07 A3023 RMK A01 T00681070  RH  037%=      5-min Rain = 0
KGU1 112134Z 08007KT 07/M07 A3023 RMK A01 T00681074  RH  036%=      5-min Rain = 0
KGU1 112135Z 07006KT 07/M07 A3023 RMK A01 T00661073  RH  037%=      5-min Rain = 0
KGU1 112136Z 06006KT 07/M08 A3023 RMK A01 T00651075  RH  037%=      5-min Rain = 0
KGU1 112137Z 06005KT 06/M08 A3023 RMK A01 T00641077  RH  036%=      5-min Rain = 0
KGU1 112138Z 08004KT 06/M07 A3023 RMK A01 T00641071  RH  038%=      5-min Rain = 0
KGU1 112139Z 08005G10KT 07/M07 A3023 RMK A01 T00651074  RH  037%=      5-min Rain = 0
KGU1 112140Z 08008KT 07/M07 A3023 RMK A01 T00651073  RH  037%=      5-min Rain = 0
KGU1 112141Z 10006KT 07/M07 A3023 RMK A01 T00651073  RH  037%=      5-min Rain = 0
KGU1 112142Z 09006KT 07/M07 A3023 RMK A01 T00651072  RH  037%=      5-min Rain = 0
KGU1 112143Z 09006KT 07/M07 A3023 RMK A01 T00651071  RH  038%=      5-min Rain = 0
KGU1 112144Z 08006KT 07/M07 A3023 RMK A01 T00661070  RH  038%=      5-min Rain = 0
KGU1 112145Z 08005KT 07/M07 A3023 RMK A01 T00661073  RH  037%=      5-min Rain = 0
KGU1 112146Z 10007KT 07/M07 A3023 RMK A01 T00661073  RH  037%=      5-min Rain = 0
KGU1 112147Z 09006KT 07/M07 A3023 RMK A01 T00661068  RH  038%=      5-min Rain = 0
KGU1 112148Z 10007KT 07/M07 A3023 RMK A01 T00671071  RH  037%=      5-min Rain = 0
KGU1 112149Z 09004KT 07/M07 A3023 RMK A01 T00671071  RH  037%=      5-min Rain = 0
KGU1 112150Z 11006KT 07/M07 A3023 RMK A01 T00671074  RH  036%=      5-min Rain = 0
KGU1 112151Z 10005KT 07/M07 A3023 RMK A01 T00671069  RH  038%=      5-min Rain = 0
KGU1 112152Z 08005KT 07/M07 A3023 RMK A01 T00681070  RH  037%=      5-min Rain = 0
KGU1 112153Z 08002KT 07/M08 A3023 RMK A01 T00691076  RH  035%=      5-min Rain = 0
KGU1 112154Z 08003KT 07/M08 A3023 RMK A01 T00681076  RH  035%=      5-min Rain = 0
KGU1 112155Z 09003KT 07/M08 A3023 RMK A01 T00681076  RH  035%=      5-min Rain = 0
KGU1 112156Z 08003KT 07/M07 A3023 RMK A01 T00671074  RH  036%=      5-min Rain = 0
KGU1 112157Z 10004KT 07/M07 A3023 RMK A01 T00671072  RH  037%=      5-min Rain = 0
KGU1 112158Z 11002KT 07/M08 A3023 RMK A01 T00661077  RH  036%=      5-min Rain = 0
KGU1 112159Z 11005KT 07/M07 A3023 RMK A01 T00661070  RH  038%=      5-min Rain = 0
KGU1 112200Z 12008KT 07/M07 A3023 RMK A01 T00661071  RH  037%=      5-min Rain = 0
KGU1 112201Z 12008KT 07/M07 A3023 RMK A01 T00661072  RH  037%=      5-min Rain = 0
KGU1 112202Z 12006KT 06/M08 A3023 RMK A01 T00631076  RH  037%=      5-min Rain = 0
KGU1 112203Z 12004KT 06/M07 A3024 RMK A01 T00611073  RH  038%=      5-min Rain = 0
KGU1 112204Z 13004KT 06/M07 A3024 RMK A01 T00601072  RH  039%=      5-min Rain = 0
KGU1 112205Z 15002KT 06/M07 A3024 RMK A01 T00611067  RH  040%=      5-min Rain = 0
KGU1 112206Z 14005KT 06/M07 A3024 RMK A01 T00641066  RH  039%=      5-min Rain = 0
KGU1 112207Z 14004KT 07/M07 A3024 RMK A01 T00661069  RH  038%=      5-min Rain = 0
KGU1 112208Z 15004KT 07/M08 A3024 RMK A01 T00671075  RH  036%=      5-min Rain = 0
KGU1 112209Z 14003KT 07/M07 A3024 RMK A01 T00661073  RH  037%=      5-min Rain = 0
KGU1 112210Z 11007KT 07/M07 A3024 RMK A01 T00651069  RH  038%=      5-min Rain = 0
KGU1 112211Z 12003KT 07/M08 A3024 RMK A01 T00651077  RH  036%=      5-min Rain = 0
KGU1 112212Z 11002KT 07/M07 A3024 RMK A01 T00651074  RH  037%=      5-min Rain = 0
KGU1 112213Z 10002KT 07/M08 A3024 RMK A01 T00661076  RH  036%=      5-min Rain = 0
KGU1 112214Z 15004KT 07/M08 A3024 RMK A01 T00661075  RH  036%=      5-min Rain = 0
KGU1 112215Z 17003KT 07/M07 A3024 RMK A01 T00661072  RH  037%=      5-min Rain = 0
KGU1 112216Z 18002KT 07/M08 A3024 RMK A01 T00661075  RH  036%=      5-min Rain = 0
KGU1 112217Z 09004KT 07/M07 A3024 RMK A01 T00671073  RH  036%=      5-min Rain = 0
KGU1 112218Z 10005KT 07/M07 A3024 RMK A01 T00681069  RH  037%=      5-min Rain = 0
KGU1 112219Z 10007KT 07/M07 A3024 RMK A01 T00681072  RH  037%=      5-min Rain = 0
KGU1 112220Z 10005KT 07/M07 A3024 RMK A01 T00671073  RH  037%=      5-min Rain = 0
KGU1 112221Z 08005KT 07/M07 A3024 RMK A01 T00661073  RH  037%=      5-min Rain = 0
KGU1 112222Z 11005KT 07/M07 A3024 RMK A01 T00661073  RH  037%=      5-min Rain = 0
KGU1 112223Z 11002KT 07/M08 A3024 RMK A01 T00661075  RH  036%=      5-min Rain = 0
KGU1 112224Z 09002KT 07/M07 A3024 RMK A01 T00661074  RH  036%=      5-min Rain = 0
KGU1 112225Z 11003KT 07/M07 A3024 RMK A01 T00661072  RH  037%=      5-min Rain = 0
KGU1 112226Z 11005KT 07/M07 A3024 RMK A01 T00671072  RH  037%=      5-min Rain = 0
KGU1 112227Z 10004KT 07/M08 A3024 RMK A01 T00661077  RH  036%=      5-min Rain = 0
KGU1 112228Z 10004KT 07/M07 A3024 RMK A01 T00651073  RH  037%=      5-min Rain = 0
KGU1 112229Z 09005KT 07/M07 A3024 RMK A01 T00661072  RH  037%=      5-min Rain = 0
KGU1 112230Z 10004KT 07/M07 A3024 RMK A01 T00661074  RH  037%=      5-min Rain = 0
KGU1 112231Z 12004KT 07/M07 A3024 RMK A01 T00651074  RH  037%=      5-min Rain = 0
KGU1 112232Z 11004KT 07/M07 A3024 RMK A01 T00651072  RH  037%=      5-min Rain = 0
KGU1 112233Z 13006KT 07/M07 A3024 RMK A01 T00651071  RH  038%=      5-min Rain = 0
KGU1 112234Z 15006KT 07/M07 A3024 RMK A01 T00661070  RH  038%=      5-min Rain = 0
KGU1 112235Z 15005KT 07/M07 A3024 RMK A01 T00661065  RH  039%=      5-min Rain = 0
KGU1 112236Z 14003KT 07/M07 A3024 RMK A01 T00681068  RH  038%=      5-min Rain = 0
KGU1 112237Z 12004KT 07/M07 A3024 RMK A01 T00681071  RH  037%=      5-min Rain = 0
KGU1 112238Z 13004KT 07/M07 A3024 RMK A01 T00671074  RH  036%=      5-min Rain = 0
KGU1 112239Z 12004KT 07/M08 A3024 RMK A01 T00671076  RH  036%=      5-min Rain = 0
KGU1 112240Z 12006KT 07/M07 A3024 RMK A01 T00661073  RH  037%=      5-min Rain = 0
KGU1 112241Z 12003KT 07/M08 A3024 RMK A01 T00651077  RH  036%=      5-min Rain = 0
KGU1 112242Z 13004KT 07/M08 A3024 RMK A01 T00651075  RH  036%=      5-min Rain = 0
KGU1 112243Z 14003KT 07/M07 A3024 RMK A01 T00651074  RH  037%=      5-min Rain = 0
KGU1 112244Z 12002KT 07/M08 A3024 RMK A01 T00651075  RH  036%=      5-min Rain = 0
KGU1 112245Z 14002KT 07/M07 A3024 RMK A01 T00661072  RH  037%=      5-min Rain = 0
KGU1 112246Z 15003KT 07/M07 A3024 RMK A01 T00671072  RH  037%=      5-min Rain = 0
KGU1 112247Z 14003KT 07/M07 A3024 RMK A01 T00681072  RH  037%=      5-min Rain = 0
KGU1 112248Z 12002KT 07/M08 A3024 RMK A01 T00681076  RH  036%=      5-min Rain = 0
KGU1 112249Z 14001KT 07/M07 A3024 RMK A01 T00691074  RH  036%=      5-min Rain = 0
KGU1 112250Z 14002KT 07/M08 A3024 RMK A01 T00691075  RH  036%=      5-min Rain = 0
KGU1 112251Z 14001KT 07/M07 A3024 RMK A01 T00701070  RH  037%=      5-min Rain = 0
KGU1 112252Z 14003KT 07/M07 A3024 RMK A01 T00711067  RH  037%=      5-min Rain = 0
KGU1 112253Z 12004KT 07/M07 A3024 RMK A01 T00711068  RH  037%=      5-min Rain = 0
KGU1 112254Z 11004KT 07/M08 A3024 RMK A01 T00711076  RH  035%=      5-min Rain = 0
KGU1 112255Z 11002KT 07/M07 A3024 RMK A01 T00691073  RH  036%=      5-min Rain = 0
KGU1 112256Z 12001KT 07/M08 A3024 RMK A01 T00681075  RH  036%=      5-min Rain = 0
KGU1 112257Z 08001KT 07/M08 A3024 RMK A01 T00691078  RH  035%=      5-min Rain = 0
KGU1 112258Z 00002KT 07/M08 A3024 RMK A01 T00681075  RH  036%=      5-min Rain = 0
KGU1 112259Z 34001KT 07/M08 A3024 RMK A01 T00661077  RH  036%=      5-min Rain = 0
KGU1 112300Z 20000KT 07/M07 A3024 RMK A01 T00661072  RH  037%=      5-min Rain = 0
KGU1 112301Z 14002KT 07/M07 A3024 RMK A01 T00681074  RH  036%=      5-min Rain = 0
KGU1 112302Z 14003KT 07/M08 A3024 RMK A01 T00691077  RH  035%=      5-min Rain = 0
KGU1 112303Z 15003KT 07/M08 A3024 RMK A01 T00681075  RH  036%=      5-min Rain = 0
KGU1 112304Z 15003KT 07/M08 A3024 RMK A01 T00671077  RH  035%=      5-min Rain = 0
KGU1 112305Z 16002KT 07/M08 A3024 RMK A01 T00661080  RH  035%=      5-min Rain = 0
KGU1 112306Z 17002KT 07/M08 A3024 RMK A01 T00661076  RH  036%=      5-min Rain = 0
KGU1 112307Z 17002KT 07/M08 A3024 RMK A01 T00671077  RH  035%=      5-min Rain = 0
KGU1 112308Z 15003KT 07/M07 A3024 RMK A01 T00671071  RH  037%=      5-min Rain = 0
KGU1 112309Z 13004KT 07/M07 A3024 RMK A01 T00661070  RH  038%=      5-min Rain = 0
KGU1 112310Z 13004KT 07/M08 A3024 RMK A01 T00661077  RH  036%=      5-min Rain = 0
KGU1 112311Z 15003KT 07/M07 A3025 RMK A01 T00651073  RH  037%=      5-min Rain = 0
KGU1 112312Z 16004KT 06/M07 A3025 RMK A01 T00641071  RH  038%=      5-min Rain = 0
KGU1 112313Z 15004KT 06/M07 A3025 RMK A01 T00641073  RH  037%=      5-min Rain = 0
KGU1 112314Z 15003KT 06/M07 A3025 RMK A01 T00631074  RH  037%=      5-min Rain = 0
KGU1 112315Z 14003KT 06/M07 A3025 RMK A01 T00621073  RH  038%=      5-min Rain = 0
KGU1 112316Z 13003KT 06/M07 A3025 RMK A01 T00621071  RH  038%=      5-min Rain = 0
KGU1 112317Z 14004KT 06/M07 A3025 RMK A01 T00621070  RH  038%=      5-min Rain = 0
KGU1 112318Z 14003KT 06/M07 A3025 RMK A01 T00621072  RH  038%=      5-min Rain = 0
KGU1 112319Z 13004KT 06/M07 A3025 RMK A01 T00621074  RH  037%=      5-min Rain = 0
KGU1 112320Z 16003KT 06/M07 A3025 RMK A01 T00621073  RH  038%=      5-min Rain = 0
KGU1 112321Z 14003KT 06/M07 A3025 RMK A01 T00621073  RH  038%=      5-min Rain = 0
KGU1 112322Z 13003KT 06/M07 A3025 RMK A01 T00621069  RH  039%=      5-min Rain = 0
KGU1 112323Z 13004KT 06/M07 A3025 RMK A01 T00621072  RH  038%=      5-min Rain = 0
KGU1 112324Z 15004KT 06/M07 A3025 RMK A01 T00621071  RH  038%=      5-min Rain = 0
KGU1 112325Z 15003KT 06/M08 A3025 RMK A01 T00611076  RH  037%=      5-min Rain = 0
KGU1 112326Z 13002KT 06/M07 A3025 RMK A01 T00611069  RH  039%=      5-min Rain = 0
KGU1 112327Z 12004KT 06/M07 A3025 RMK A01 T00621068  RH  039%=      5-min Rain = 0
KGU1 112328Z 12005KT 06/M07 A3025 RMK A01 T00611072  RH  038%=      5-min Rain = 0
KGU1 112329Z 13004KT 06/M07 A3025 RMK A01 T00611068  RH  040%=      5-min Rain = 0
KGU1 112330Z 15004KT 06/M07 A3025 RMK A01 T00601072  RH  039%=      5-min Rain = 0
KGU1 112331Z 15003KT 06/M07 A3025 RMK A01 T00601073  RH  038%=      5-min Rain = 0
KGU1 112332Z 16003KT 06/M07 A3025 RMK A01 T00591071  RH  039%=      5-min Rain = 0
KGU1 112333Z 13006KT 06/M07 A3025 RMK A01 T00591068  RH  040%=      5-min Rain = 0
KGU1 112334Z 11004KT 06/M07 A3025 RMK A01 T00581068  RH  040%=      5-min Rain = 0
KGU1 112335Z 10003KT 06/M07 A3025 RMK A01 T00581066  RH  041%=      5-min Rain = 0
KGU1 112336Z 11003KT 06/M07 A3025 RMK A01 T00571072  RH  039%=      5-min Rain = 0
KGU1 112337Z 11002KT 06/M07 A3025 RMK A01 T00571073  RH  039%=      5-min Rain = 0
KGU1 112338Z 12003KT 06/M07 A3025 RMK A01 T00571071  RH  040%=      5-min Rain = 0
KGU1 112339Z 11003KT 06/M07 A3025 RMK A01 T00571070  RH  040%=      5-min Rain = 0
KGU1 112340Z 11003KT 06/M07 A3025 RMK A01 T00571069  RH  040%=      5-min Rain = 0
KGU1 112341Z 11002KT 06/M07 A3025 RMK A01 T00571069  RH  040%=      5-min Rain = 0
KGU1 112342Z 10001KT 06/M07 A3025 RMK A01 T00571065  RH  042%=      5-min Rain = 0
KGU1 112343Z 10001KT 06/M06 A3025 RMK A01 T00571064  RH  042%=      5-min Rain = 0
KGU1 112344Z 10001KT 06/M07 A3025 RMK A01 T00571069  RH  040%=      5-min Rain = 0
KGU1 112345Z 10001KT 06/M07 A3025 RMK A01 T00571074  RH  039%=      5-min Rain = 0
KGU1 112346Z 06001KT 06/M07 A3025 RMK A01 T00571070  RH  040%=      5-min Rain = 0
KGU1 112347Z 06001KT 06/M07 A3026 RMK A01 T00571066  RH  041%=      5-min Rain = 0
KGU1 112348Z 06003KT 06/M07 A3026 RMK A01 T00561070  RH  040%=      5-min Rain = 0
KGU1 112349Z 05003KT 06/M07 A3026 RMK A01 T00551071  RH  040%=      5-min Rain = 0
KGU1 112350Z 06003KT 05/M07 A3026 RMK A01 T00531073  RH  040%=      5-min Rain = 0
KGU1 112351Z 07003KT 05/M07 A3026 RMK A01 T00521072  RH  041%=      5-min Rain = 0
KGU1 112352Z 06003KT 05/M07 A3026 RMK A01 T00511071  RH  042%=      5-min Rain = 0
KGU1 112353Z 06003KT 05/M07 A3026 RMK A01 T00491071  RH  042%=      5-min Rain = 0
KGU1 112354Z 07003KT 05/M07 A3026 RMK A01 T00481070  RH  043%=      5-min Rain = 0
KGU1 112355Z 09002KT 05/M07 A3026 RMK A01 T00471068  RH  043%=      5-min Rain = 0
KGU1 112356Z 09003KT 05/M07 A3026 RMK A01 T00471067  RH  044%=      5-min Rain = 0
KGU1 112357Z 09003KT 05/M07 A3026 RMK A01 T00461065  RH  045%=      5-min Rain = 0
KGU1 112358Z 09003KT 05/M06 A3026 RMK A01 T00451064  RH  046%=      5-min Rain = 0
KGU1 112359Z 10002KT 04/M06 A3026 RMK A01 T00441062  RH  046%=      5-min Rain = 0
KGU1 120000Z 09002KT 04/M06 A3026 RMK A01 T00431061  RH  047%=      5-min Rain = 0
KGU1 120001Z 09002KT 04/M06 A3026 RMK A01 T00421062  RH  047%=      5-min Rain = 0
KGU1 120002Z 09002KT 04/M06 A3026 RMK A01 T00421062  RH  047%=      5-min Rain = 0
KGU1 120003Z 09002KT 04/M06 A3026 RMK A01 T00411062  RH  047%=      5-min Rain = 0
KGU1 120004Z 08001KT 04/M06 A3026 RMK A01 T00411062  RH  048%=      5-min Rain = 0
KGU1 120005Z 07001KT 04/M06 A3026 RMK A01 T00401061  RH  048%=      5-min Rain = 0
KGU1 120006Z 05000KT 04/M06 A3026 RMK A01 T00391060  RH  049%=      5-min Rain = 0
KGU1 120007Z 00000KT 04/M06 A3026 RMK A01 T00381060  RH  049%=      5-min Rain = 0
KGU1 120008Z 31000KT 04/M06 A3026 RMK A01 T00371057  RH  051%=      5-min Rain = 0
KGU1 120009Z 28001KT 04/M06 A3026 RMK A01 T00351057  RH  051%=      5-min Rain = 0
KGU1 120010Z 28002KT 03/M06 A3026 RMK A01 T00341058  RH  052%=      5-min Rain = 0
KGU1 120011Z 28002KT 03/M06 A3026 RMK A01 T00321056  RH  053%=      5-min Rain = 0
KGU1 120012Z 30002KT 03/M06 A3026 RMK A01 T00301056  RH  054%=      5-min Rain = 0
KGU1 120013Z 30002KT 03/M06 A3026 RMK A01 T00291056  RH  054%=      5-min Rain = 0
KGU1 120014Z 30002KT 03/M06 A3026 RMK A01 T00291056  RH  054%=      5-min Rain = 0
KGU1 120015Z 31002KT 03/M05 A3026 RMK A01 T00281054  RH  055%=      5-min Rain = 0
KGU1 120016Z 32002KT 03/M05 A3026 RMK A01 T00261054  RH  056%=      5-min Rain = 0
KGU1 120017Z 33002KT 03/M06 A3026 RMK A01 T00261055  RH  056%=      5-min Rain = 0
KGU1 120018Z 34002KT 03/M06 A3026 RMK A01 T00271056  RH  055%=      5-min Rain = 0
KGU1 120019Z 36002KT 03/M06 A3026 RMK A01 T00271055  RH  055%=      5-min Rain = 0
KGU1 120020Z 00002KT 03/M06 A3026 RMK A01 T00261055  RH  056%=      5-min Rain = 0
KGU1 120021Z 01002KT 03/M05 A3026 RMK A01 T00251054  RH  057%=      5-min Rain = 0
KGU1 120022Z 01002KT 02/M06 A3026 RMK A01 T00241055  RH  056%=      5-min Rain = 0
KGU1 120023Z 02002KT 03/M06 A3026 RMK A01 T00251055  RH  056%=      5-min Rain = 0
KGU1 120024Z 01002KT 02/M06 A3026 RMK A01 T00241055  RH  057%=      5-min Rain = 0
KGU1 120025Z 01002KT 02/M06 A3026 RMK A01 T00241056  RH  056%=      5-min Rain = 0
KGU1 120026Z 36002KT 02/M06 A3026 RMK A01 T00241056  RH  056%=      5-min Rain = 0
KGU1 120027Z 35002KT 03/M06 A3026 RMK A01 T00251055  RH  056%=      5-min Rain = 0
KGU1 120028Z 00002KT 02/M05 A3026 RMK A01 T00241054  RH  057%=      5-min Rain = 0
KGU1 120029Z 36001KT 02/M05 A3026 RMK A01 T00241054  RH  057%=      5-min Rain = 0
KGU1 120030Z 34002KT 02/M05 A3026 RMK A01 T00231053  RH  058%=      5-min Rain = 0
KGU1 120031Z 32002KT 02/M05 A3026 RMK A01 T00211052  RH  059%=      5-min Rain = 0
KGU1 120032Z 32002KT 02/M05 A3026 RMK A01 T00191052  RH  060%=      5-min Rain = 0
KGU1 120033Z 34002KT 02/M05 A3026 RMK A01 T00181052  RH  060%=      5-min Rain = 0
KGU1 120034Z 35002KT 02/M05 A3026 RMK A01 T00181052  RH  060%=      5-min Rain = 0
KGU1 120035Z 00002KT 02/M05 A3026 RMK A01 T00171053  RH  060%=      5-min Rain = 0
KGU1 120036Z 01002KT 02/M05 A3026 RMK A01 T00181054  RH  060%=      5-min Rain = 0
KGU1 120037Z 36002KT 02/M05 A3027 RMK A01 T00181054  RH  060%=      5-min Rain = 0
KGU1 120038Z 01002KT 02/M05 A3027 RMK A01 T00181053  RH  060%=      5-min Rain = 0
KGU1 120039Z 00003KT 02/M05 A3027 RMK A01 T00181053  RH  060%=      5-min Rain = 0
KGU1 120040Z 01002KT 02/M05 A3027 RMK A01 T00171053  RH  060%=      5-min Rain = 0
KGU1 120041Z 01002KT 02/M06 A3027 RMK A01 T00171055  RH  059%=      5-min Rain = 0
KGU1 120042Z 01002KT 02/M05 A3027 RMK A01 T00181054  RH  060%=      5-min Rain = 0
KGU1 120043Z 02002KT 02/M06 A3027 RMK A01 T00171055  RH  059%=      5-min Rain = 0
KGU1 120044Z 01002KT 02/M06 A3027 RMK A01 T00191056  RH  058%=      5-min Rain = 0
KGU1 120045Z 36001KT 02/M06 A3027 RMK A01 T00201055  RH  058%=      5-min Rain = 0
KGU1 120046Z 35001KT 02/M06 A3027 RMK A01 T00201056  RH  058%=      5-min Rain = 0
KGU1 120047Z 33001KT 02/M06 A3027 RMK A01 T00201055  RH  058%=      5-min Rain = 0
KGU1 120048Z 32001KT 02/M05 A3027 RMK A01 T00191054  RH  059%=      5-min Rain = 0
KGU1 120049Z 32001KT 02/M05 A3027 RMK A01 T00181054  RH  059%=      5-min Rain = 0
KGU1 120050Z 31001KT 02/M05 A3027 RMK A01 T00171053  RH  060%=      5-min Rain = 0
KGU1 120051Z 32002KT 02/M05 A3027 RMK A01 T00161053  RH  061%=      5-min Rain = 0
KGU1 120052Z 30003KT 02/M05 A3027 RMK A01 T00151053  RH  061%=      5-min Rain = 0
KGU1 120053Z 30002KT 01/M05 A3027 RMK A01 T00141053  RH  062%=      5-min Rain = 0
KGU1 120054Z 31002KT 01/M05 A3027 RMK A01 T00131053  RH  062%=      5-min Rain = 0
KGU1 120055Z 34003KT 01/M05 A3027 RMK A01 T00121052  RH  063%=      5-min Rain = 0
KGU1 120056Z 33002KT 01/M05 A3027 RMK A01 T00111052  RH  063%=      5-min Rain = 0
KGU1 120057Z 32003KT 01/M05 A3027 RMK A01 T00121052  RH  063%=      5-min Rain = 0
KGU1 120058Z 32003KT 01/M05 A3027 RMK A01 T00111051  RH  064%=      5-min Rain = 0
KGU1 120059Z 33003KT 01/M05 A3027 RMK A01 T00101051  RH  064%=      5-min Rain = 0
KGU1 120100Z 33002KT 01/M05 A3027 RMK A01 T00101051  RH  065%=      5-min Rain = 0
KGU1 120101Z 32002KT 01/M05 A3027 RMK A01 T00091051  RH  065%=      5-min Rain = 0
KGU1 120102Z 32003KT 01/M05 A3027 RMK A01 T00091051  RH  065%=      5-min Rain = 0
KGU1 120103Z 32002KT 01/M05 A3027 RMK A01 T00071051  RH  066%=      5-min Rain = 0
KGU1 120104Z 31003KT 01/M05 A3027 RMK A01 T00071051  RH  066%=      5-min Rain = 0
KGU1 120105Z 32003KT 01/M05 A3027 RMK A01 T00071051  RH  066%=      5-min Rain = 0
KGU1 120106Z 32003KT 01/M05 A3027 RMK A01 T00061051  RH  066%=      5-min Rain = 0
KGU1 120107Z 30003KT 01/M05 A3027 RMK A01 T00061051  RH  066%=      5-min Rain = 0
KGU1 120108Z 29003KT 01/M05 A3027 RMK A01 T00071052  RH  065%=      5-min Rain = 0
KGU1 120109Z 29003KT 01/M05 A3027 RMK A01 T00071052  RH  065%=      5-min Rain = 0
KGU1 120110Z 29003KT 01/M05 A3027 RMK A01 T00071052  RH  065%=      5-min Rain = 0
KGU1 120111Z 31002KT 01/M05 A3027 RMK A01 T00061052  RH  066%=      5-min Rain = 0
KGU1 120112Z 32002KT 01/M05 A3027 RMK A01 T00061052  RH  066%=      5-min Rain = 0
KGU1 120113Z 33002KT 01/M05 A3027 RMK A01 T00051052  RH  066%=      5-min Rain = 0
KGU1 120114Z 34001KT 00/M05 A3027 RMK A01 T00041051  RH  067%=      5-min Rain = 0
KGU1 120115Z 34001KT 00/M05 A3027 RMK A01 T00031051  RH  067%=      5-min Rain = 0
KGU1 120116Z 33001KT 00/M05 A3027 RMK A01 T00031052  RH  067%=      5-min Rain = 0
KGU1 120117Z 32001KT 00/M05 A3027 RMK A01 T00031052  RH  067%=      5-min Rain = 0
KGU1 120118Z 32001KT 00/M05 A3028 RMK A01 T00031052  RH  067%=      5-min Rain = 0
KGU1 120119Z 31002KT 00/M05 A3028 RMK A01 T00031052  RH  067%=      5-min Rain = 0
KGU1 120120Z 31002KT 00/M05 A3028 RMK A01 T00031052  RH  067%=      5-min Rain = 0
KGU1 120121Z 31003KT 00/M05 A3028 RMK A01 T00041052  RH  067%=      5-min Rain = 0
KGU1 120122Z 31003KT 00/M05 A3028 RMK A01 T00041051  RH  067%=      5-min Rain = 0
KGU1 120123Z 32003KT 00/M05 A3028 RMK A01 T00041050  RH  068%=      5-min Rain = 0
KGU1 120124Z 32003KT 00/M05 A3028 RMK A01 T00041050  RH  068%=      5-min Rain = 0
KGU1 120125Z 31003KT 00/M05 A3028 RMK A01 T00031050  RH  068%=      5-min Rain = 0
KGU1 120126Z 32003KT 00/M05 A3027 RMK A01 T00031050  RH  068%=      5-min Rain = 0
KGU1 120127Z 32002KT 00/M05 A3028 RMK A01 T00031050  RH  068%=      5-min Rain = 0
KGU1 120128Z 32003KT 00/M05 A3028 RMK A01 T00031050  RH  068%=      5-min Rain = 0
KGU1 120129Z 31003KT 00/M05 A3028 RMK A01 T00021050  RH  069%=      5-min Rain = 0
KGU1 120130Z 31002KT 00/M05 A3028 RMK A01 T00011051  RH  069%=      5-min Rain = 0
KGU1 120131Z 30003KT 00/M05 A3028 RMK A01 T00011051  RH  069%=      5-min Rain = 0
KGU1 120132Z 31003KT 00/M05 A3028 RMK A01 T00011051  RH  069%=      5-min Rain = 0
KGU1 120133Z 30003KT 00/M05 A3028 RMK A01 T00011052  RH  069%=      5-min Rain = 0
KGU1 120134Z 31003KT 00/M05 A3028 RMK A01 T00011051  RH  069%=      5-min Rain = 0
KGU1 120135Z 31003KT 00/05 A3028 RMK A01 T00000-51  RH  069%=      5-min Rain = 0
KGU1 120136Z 32003KT 00/05 A3028 RMK A01 T00000-50  RH  069%=      5-min Rain = 0
KGU1 120137Z 31003KT 00/M05 A3027 RMK A01 T00011050  RH  069%=      5-min Rain = 0
KGU1 120138Z 31003KT 00/M05 A3027 RMK A01 T00011049  RH  070%=      5-min Rain = 0
KGU1 120139Z 30003KT 00/M05 A3027 RMK A01 T00011050  RH  069%=      5-min Rain = 0
KGU1 120140Z 31003KT 00/M05 A3027 RMK A01 T00011050  RH  069%=      5-min Rain = 0
KGU1 120141Z 32002KT 00/M05 A3027 RMK A01 T00011050  RH  069%=      5-min Rain = 0
KGU1 120142Z 33002KT 00/M05 A3027 RMK A01 T00011050  RH  069%=      5-min Rain = 0
KGU1 120143Z 34002KT 00/M05 A3027 RMK A01 T00021051  RH  069%=      5-min Rain = 0
KGU1 120144Z 32002KT 00/M05 A3027 RMK A01 T00021051  RH  068%=      5-min Rain = 0
KGU1 120145Z 31002KT 00/M05 A3027 RMK A01 T00021051  RH  068%=      5-min Rain = 0
KGU1 120146Z 28003KT 00/M05 A3027 RMK A01 T00011052  RH  068%=      5-min Rain = 0
KGU1 120147Z 29003KT 00/M05 A3027 RMK A01 T00011051  RH  069%=      5-min Rain = 0
KGU1 120148Z 29004KT 00/05 A3028 RMK A01 T00000-51  RH  069%=      5-min Rain = 0
KGU1 120149Z 29004KT M00/M05 A3028 RMK A01 T10011051  RH  070%=      5-min Rain = 0
KGU1 120150Z 29005KT M00/M05 A3028 RMK A01 T10021052  RH  070%=      5-min Rain = 0
KGU1 120151Z 29005KT M00/M05 A3028 RMK A01 T10031051  RH  071%=      5-min Rain = 0
KGU1 120152Z 30004KT M00/M05 A3028 RMK A01 T10041051  RH  071%=      5-min Rain = 0
KGU1 120153Z 30004KT M00/M05 A3028 RMK A01 T10041051  RH  071%=      5-min Rain = 0
KGU1 120154Z 30004KT M01/M05 A3028 RMK A01 T10051051  RH  072%=      5-min Rain = 0
KGU1 120155Z 30003KT M01/M05 A3028 RMK A01 T10061050  RH  073%=      5-min Rain = 0
KGU1 120156Z 30004KT M01/M05 A3028 RMK A01 T10061050  RH  073%=      5-min Rain = 0
KGU1 120157Z 30004KT M01/M05 A3028 RMK A01 T10061050  RH  073%=      5-min Rain = 0
KGU1 120158Z 30004KT M01/M05 A3028 RMK A01 T10051050  RH  073%=      5-min Rain = 0
KGU1 120159Z 30004KT M01/M05 A3028 RMK A01 T10051049  RH  073%=      5-min Rain = 0
KGU1 120200Z 30004KT M01/M05 A3028 RMK A01 T10051050  RH  073%=      5-min Rain = 0
KGU1 120201Z 30004KT M01/M05 A3028 RMK A01 T10051050  RH  072%=      5-min Rain = 0
KGU1 120202Z 30004KT M00/M05 A3028 RMK A01 T10041050  RH  072%=      5-min Rain = 0
KGU1 120203Z 30004KT M00/M05 A3028 RMK A01 T10041050  RH  072%=      5-min Rain = 0
KGU1 120204Z 30003KT M00/M05 A3028 RMK A01 T10031049  RH  072%=      5-min Rain = 0
KGU1 120205Z 30003KT M00/M05 A3028 RMK A01 T10031050  RH  071%=      5-min Rain = 0
KGU1 120206Z 30003KT M00/M05 A3028 RMK A01 T10031050  RH  071%=      5-min Rain = 0
KGU1 120207Z 29003KT M00/M05 A3028 RMK A01 T10031050  RH  071%=      5-min Rain = 0
KGU1 120208Z 29004KT M00/M05 A3028 RMK A01 T10041051  RH  071%=      5-min Rain = 0
KGU1 120209Z 29004KT M00/M05 A3028 RMK A01 T10041051  RH  072%=      5-min Rain = 0
KGU1 120210Z 29004KT M01/M05 A3028 RMK A01 T10051050  RH  072%=      5-min Rain = 0
KGU1 120211Z 30003KT M01/M05 A3028 RMK A01 T10051050  RH  072%=      5-min Rain = 0
KGU1 120212Z 30003KT M01/M05 A3028 RMK A01 T10051051  RH  072%=      5-min Rain = 0
KGU1 120213Z 30004KT M01/M05 A3028 RMK A01 T10051050  RH  072%=      5-min Rain = 0
KGU1 120214Z 30005KT M01/M05 A3028 RMK A01 T10051050  RH  073%=      5-min Rain = 0
KGU1 120215Z 29005KT M01/M05 A3028 RMK A01 T10051050  RH  073%=      5-min Rain = 0
KGU1 120216Z 30004KT M01/M05 A3028 RMK A01 T10051049  RH  073%=      5-min Rain = 0
KGU1 120217Z 30004KT M01/M05 A3028 RMK A01 T10061049  RH  073%=      5-min Rain = 0
KGU1 120218Z 30005KT M01/M05 A3028 RMK A01 T10061050  RH  073%=      5-min Rain = 0
KGU1 120219Z 30005KT M01/M05 A3028 RMK A01 T10071050  RH  073%=      5-min Rain = 0
KGU1 120220Z 30005KT M01/M05 A3028 RMK A01 T10071050  RH  074%=      5-min Rain = 0
KGU1 120221Z 30006KT M01/M05 A3028 RMK A01 T10071049  RH  074%=      5-min Rain = 0
KGU1 120222Z 30005KT M01/M05 A3028 RMK A01 T10061049  RH  074%=      5-min Rain = 0
KGU1 120223Z 30005KT M01/M05 A3028 RMK A01 T10061048  RH  074%=      5-min Rain = 0
KGU1 120224Z 30004KT M01/M05 A3028 RMK A01 T10061048  RH  074%=      5-min Rain = 0
KGU1 120225Z 31003KT M01/M05 A3028 RMK A01 T10061048  RH  074%=      5-min Rain = 0
KGU1 120226Z 30003KT M01/M05 A3028 RMK A01 T10051048  RH  074%=      5-min Rain = 0
KGU1 120227Z 32004KT M01/M05 A3028 RMK A01 T10051048  RH  073%=      5-min Rain = 0
KGU1 120228Z 31003KT M00/M05 A3028 RMK A01 T10041048  RH  073%=      5-min Rain = 0
KGU1 120229Z 32002KT M00/M05 A3027 RMK A01 T10031048  RH  073%=      5-min Rain = 0
KGU1 120230Z 32001KT M00/M05 A3027 RMK A01 T10031048  RH  072%=      5-min Rain = 0
KGU1 120231Z 31000KT M00/M05 A3027 RMK A01 T10031049  RH  072%=      5-min Rain = 0
KGU1 120232Z 30003KT M00/M05 A3027 RMK A01 T10021048  RH  072%=      5-min Rain = 0
KGU1 120233Z 30002KT M00/M05 A3027 RMK A01 T10021048  RH  072%=      5-min Rain = 0
KGU1 120234Z 30001KT M00/M05 A3027 RMK A01 T10021049  RH  071%=      5-min Rain = 0
KGU1 120235Z 29000KT M00/M05 A3027 RMK A01 T10011049  RH  071%=      5-min Rain = 0
KGU1 120236Z 28001KT 00/05 A3027 RMK A01 T00000-49  RH  070%=      5-min Rain = 0
KGU1 120237Z 29001KT 00/M05 A3027 RMK A01 T00011049  RH  070%=      5-min Rain = 0
KGU1 120238Z 28002KT 00/M05 A3027 RMK A01 T00021049  RH  069%=      5-min Rain = 0
KGU1 120239Z 28002KT 00/M05 A3027 RMK A01 T00011050  RH  069%=      5-min Rain = 0
KGU1 120240Z 28002KT 00/M05 A3027 RMK A01 T00011050  RH  069%=      5-min Rain = 0
KGU1 120241Z 29003KT 00/M05 A3027 RMK A01 T00011050  RH  070%=      5-min Rain = 0
KGU1 120242Z 29002KT 00/05 A3027 RMK A01 T00-00-50  RH  070%=      5-min Rain = 0
KGU1 120243Z 29002KT M00/M05 A3027 RMK A01 T10011050  RH  070%=      5-min Rain = 0
KGU1 120244Z 29001KT M00/M05 A3027 RMK A01 T10021050  RH  071%=      5-min Rain = 0
KGU1 120245Z 31001KT M00/M05 A3027 RMK A01 T10021050  RH  071%=      5-min Rain = 0
KGU1 120246Z 31002KT M00/M05 A3027 RMK A01 T10031050  RH  071%=      5-min Rain = 0
KGU1 120247Z 30002KT M00/M05 A3027 RMK A01 T10031050  RH  072%=      5-min Rain = 0
KGU1 120248Z 30002KT M00/M05 A3027 RMK A01 T10041050  RH  072%=      5-min Rain = 0
KGU1 120249Z 29002KT M01/M05 A3027 RMK A01 T10051050  RH  073%=      5-min Rain = 0
KGU1 120250Z 29003KT M01/M05 A3027 RMK A01 T10051049  RH  073%=      5-min Rain = 0
KGU1 120251Z 30004KT M01/M05 A3027 RMK A01 T10071050  RH  073%=      5-min Rain = 0
KGU1 120252Z 31004KT M01/M05 A3027 RMK A01 T10081050  RH  074%=      5-min Rain = 0
KGU1 120253Z 32003KT M01/M05 A3027 RMK A01 T10091050  RH  075%=      5-min Rain = 0
KGU1 120254Z 32003KT M01/M05 A3027 RMK A01 T10101050  RH  076%=      5-min Rain = 0
KGU1 120255Z 31004KT M01/M05 A3027 RMK A01 T10121050  RH  076%=      5-min Rain = 0
KGU1 120256Z 31004KT M01/M05 A3027 RMK A01 T10121050  RH  076%=      5-min Rain = 0
KGU1 120257Z 32004KT M01/M05 A3027 RMK A01 T10121049  RH  076%=      5-min Rain = 0
KGU1 120258Z 33003KT M01/M05 A3027 RMK A01 T10121049  RH  077%=      5-min Rain = 0
KGU1 120259Z 34003KT M01/M05 A3027 RMK A01 T10111049  RH  076%=      5-min Rain = 0
KGU1 120300Z 32004KT M01/M05 A3027 RMK A01 T10091049  RH  075%=      5-min Rain = 0
KGU1 120301Z 32005KT M01/M05 A3027 RMK A01 T10091049  RH  075%=      5-min Rain = 0
KGU1 120302Z 31005KT M01/M05 A3027 RMK A01 T10091049  RH  075%=      5-min Rain = 0
KGU1 120303Z 31005KT M01/M05 A3027 RMK A01 T10091048  RH  076%=      5-min Rain = 0
KGU1 120304Z 30004KT M01/M05 A3027 RMK A01 T10091047  RH  076%=      5-min Rain = 0
KGU1 120305Z 29004KT M01/M05 A3027 RMK A01 T10091049  RH  075%=      5-min Rain = 0
KGU1 120306Z 27005KT M01/M05 A3027 RMK A01 T10101050  RH  075%=      5-min Rain = 0
KGU1 120307Z 28006KT M01/M05 A3027 RMK A01 T10101050  RH  075%=      5-min Rain = 0
KGU1 120308Z 28005KT M01/M05 A3027 RMK A01 T10111050  RH  075%=      5-min Rain = 0
KGU1 120309Z 28005KT M01/M05 A3027 RMK A01 T10111051  RH  075%=      5-min Rain = 0
KGU1 120310Z 28005KT M01/M05 A3027 RMK A01 T10111051  RH  075%=      5-min Rain = 0
KGU1 120311Z 28005KT M01/M05 A3027 RMK A01 T10111051  RH  075%=      5-min Rain = 0
KGU1 120312Z 28006KT M01/M05 A3027 RMK A01 T10121052  RH  075%=      5-min Rain = 0
KGU1 120313Z 29006KT M01/M05 A3027 RMK A01 T10131051  RH  076%=      5-min Rain = 0
KGU1 120314Z 29006KT M01/M05 A3027 RMK A01 T10131051  RH  076%=      5-min Rain = 0
KGU1 120315Z 29006KT M01/M05 A3027 RMK A01 T10131051  RH  076%=      5-min Rain = 0
KGU1 120316Z 29006KT M01/M05 A3027 RMK A01 T10131051  RH  076%=      5-min Rain = 0
KGU1 120317Z 29006KT M01/M05 A3027 RMK A01 T10131051  RH  076%=      5-min Rain = 0
KGU1 120318Z 29006KT M01/M05 A3027 RMK A01 T10131051  RH  076%=      5-min Rain = 0
KGU1 120319Z 29006KT M01/M05 A3027 RMK A01 T10121050  RH  076%=      5-min Rain = 0
KGU1 120320Z 29006KT M01/M05 A3027 RMK A01 T10121051  RH  076%=      5-min Rain = 0
KGU1 120321Z 28005KT M01/M05 A3027 RMK A01 T10111051  RH  075%=      5-min Rain = 0
KGU1 120322Z 27005KT M01/M05 A3027 RMK A01 T10111051  RH  075%=      5-min Rain = 0
KGU1 120323Z 28007KT M01/M05 A3027 RMK A01 T10101051  RH  075%=      5-min Rain = 0
KGU1 120324Z 29007KT M01/M05 A3027 RMK A01 T10101051  RH  074%=      5-min Rain = 0
KGU1 120325Z 29007KT M01/M05 A3027 RMK A01 T10101051  RH  075%=      5-min Rain = 0
KGU1 120326Z 29006KT M01/M05 A3027 RMK A01 T10111050  RH  075%=      5-min Rain = 0
KGU1 120327Z 29006KT M01/M05 A3027 RMK A01 T10101050  RH  075%=      5-min Rain = 0
KGU1 120328Z 29006KT M01/M05 A3027 RMK A01 T10101050  RH  075%=      5-min Rain = 0
KGU1 120329Z 30006KT M01/M05 A3027 RMK A01 T10101050  RH  075%=      5-min Rain = 0
KGU1 120330Z 30006KT M01/M05 A3027 RMK A01 T10101050  RH  075%=      5-min Rain = 0
KGU1 120331Z 30006KT M01/M05 A3027 RMK A01 T10101050  RH  075%=      5-min Rain = 0
KGU1 120332Z 30005KT M01/M05 A3027 RMK A01 T10091050  RH  075%=      5-min Rain = 0
KGU1 120333Z 30004KT M01/M05 A3027 RMK A01 T10101050  RH  075%=      5-min Rain = 0
KGU1 120334Z 30004KT M01/M05 A3027 RMK A01 T10101051  RH  074%=      5-min Rain = 0
KGU1 120335Z 29005KT M01/M05 A3027 RMK A01 T10101051  RH  075%=      5-min Rain = 0
KGU1 120336Z 30005KT M01/M05 A3027 RMK A01 T10111051  RH  075%=      5-min Rain = 0
KGU1 120337Z 30004KT M01/M05 A3027 RMK A01 T10121051  RH  076%=      5-min Rain = 0
KGU1 120338Z 30004KT M01/M05 A3027 RMK A01 T10131051  RH  076%=      5-min Rain = 0
KGU1 120339Z 31003KT M01/M05 A3027 RMK A01 T10131051  RH  076%=      5-min Rain = 0
KGU1 120340Z 30004KT M01/M05 A3027 RMK A01 T10131051  RH  076%=      5-min Rain = 0
KGU1 120341Z 30004KT M01/M05 A3027 RMK A01 T10131051  RH  076%=      5-min Rain = 0
KGU1 120342Z 30004KT M01/M05 A3027 RMK A01 T10131052  RH  076%=      5-min Rain = 0
KGU1 120343Z 30003KT M01/M05 A3028 RMK A01 T10131052  RH  076%=      5-min Rain = 0
KGU1 120344Z 30003KT M01/M05 A3028 RMK A01 T10131051  RH  076%=      5-min Rain = 0
KGU1 120345Z 30003KT M01/M05 A3027 RMK A01 T10121052  RH  075%=      5-min Rain = 0
KGU1 120346Z 30002KT M01/M05 A3027 RMK A01 T10121052  RH  075%=      5-min Rain = 0
KGU1 120347Z 28002KT M01/M05 A3027 RMK A01 T10121052  RH  075%=      5-min Rain = 0
KGU1 120348Z 29003KT M01/M05 A3027 RMK A01 T10101052  RH  074%=      5-min Rain = 0
KGU1 120349Z 29002KT M01/M05 A3027 RMK A01 T10081053  RH  072%=      5-min Rain = 0
KGU1 120350Z 29002KT M01/M05 A3027 RMK A01 T10081053  RH  072%=      5-min Rain = 0
KGU1 120351Z 30002KT M01/M05 A3027 RMK A01 T10091053  RH  073%=      5-min Rain = 0
KGU1 120352Z 31002KT M01/M05 A3027 RMK A01 T10091053  RH  073%=      5-min Rain = 0
KGU1 120353Z 30002KT M01/M05 A3027 RMK A01 T10091052  RH  073%=      5-min Rain = 0
KGU1 120354Z 29002KT M01/M05 A3027 RMK A01 T10091052  RH  073%=      5-min Rain = 0
KGU1 120355Z 29002KT M01/M05 A3027 RMK A01 T10071052  RH  072%=      5-min Rain = 0
KGU1 120356Z 29002KT M01/M05 A3027 RMK A01 T10051052  RH  071%=      5-min Rain = 0
KGU1 120357Z 30002KT M00/M05 A3027 RMK A01 T10021052  RH  070%=      5-min Rain = 0
KGU1 120358Z 29002KT M00/M05 A3027 RMK A01 T10021054  RH  069%=      5-min Rain = 0
KGU1 120359Z 29004KT M00/M05 A3027 RMK A01 T10021054  RH  069%=      5-min Rain = 0
KGU1 120400Z 28005KT M01/M05 A3027 RMK A01 T10051054  RH  070%=      5-min Rain = 0
KGU1 120401Z 27003KT M01/M05 A3027 RMK A01 T10051053  RH  071%=      5-min Rain = 0
KGU1 120402Z 28005KT M01/M05 A3027 RMK A01 T10051053  RH  071%=      5-min Rain = 0
KGU1 120403Z 28005KT M01/M05 A3027 RMK A01 T10071053  RH  072%=      5-min Rain = 0
KGU1 120404Z 28004KT M00/M05 A3027 RMK A01 T10041052  RH  071%=      5-min Rain = 0
KGU1 120405Z 25003KT 00/M05 A3027 RMK A01 T00021051  RH  068%=      5-min Rain = 0
KGU1 120406Z 26003KT 00/M05 A3027 RMK A01 T00031052  RH  067%=      5-min Rain = 0
KGU1 120407Z 25003KT 00/M05 A3027 RMK A01 T00031052  RH  067%=      5-min Rain = 0
KGU1 120408Z 27004KT 00/M05 A3027 RMK A01 T00031053  RH  067%=      5-min Rain = 0
KGU1 120409Z 29006KT 00/M05 A3027 RMK A01 T00021053  RH  067%=      5-min Rain = 0
KGU1 120410Z 28006KT 00/05 A3027 RMK A01 T00-00-52  RH  069%=      5-min Rain = 0
KGU1 120411Z 27005KT M00/M05 A3027 RMK A01 T10011051  RH  070%=      5-min Rain = 0
KGU1 120412Z 28004KT 00/05 A3027 RMK A01 T00-00-52  RH  069%=      5-min Rain = 0
KGU1 120413Z 28004KT 00/05 A3027 RMK A01 T00-00-52  RH  069%=      5-min Rain = 0
KGU1 120414Z 28005KT 00/M05 A3027 RMK A01 T00011052  RH  068%=      5-min Rain = 0
KGU1 120415Z 27004KT 00/M05 A3027 RMK A01 T00011052  RH  068%=      5-min Rain = 0
KGU1 120416Z 27003KT 00/M05 A3027 RMK A01 T00011052  RH  069%=      5-min Rain = 0
KGU1 120417Z 28004KT 00/M05 A3027 RMK A01 T00011052  RH  068%=      5-min Rain = 0
KGU1 120418Z 27004KT 00/M05 A3027 RMK A01 T00031051  RH  068%=      5-min Rain = 0
KGU1 120419Z 29005KT 00/M05 A3027 RMK A01 T00021052  RH  068%=      5-min Rain = 0
KGU1 120420Z 30006KT 00/05 A3028 RMK A01 T00000-51  RH  069%=      5-min Rain = 0
KGU1 120421Z 28006KT M00/M05 A3027 RMK A01 T10011051  RH  070%=      5-min Rain = 0
KGU1 120422Z 29006KT M00/M05 A3027 RMK A01 T10011051  RH  070%=      5-min Rain = 0
KGU1 120423Z 30006KT M00/M05 A3027 RMK A01 T10021050  RH  070%=      5-min Rain = 0
KGU1 120424Z 26005KT M00/M05 A3027 RMK A01 T10021051  RH  070%=      5-min Rain = 0
KGU1 120425Z 27005KT 00/05 A3027 RMK A01 T00-00-51  RH  069%=      5-min Rain = 0
KGU1 120426Z 24004KT 00/M05 A3027 RMK A01 T00011051  RH  069%=      5-min Rain = 0
KGU1 120427Z 22004KT 00/M05 A3027 RMK A01 T00021050  RH  069%=      5-min Rain = 0
KGU1 120428Z 26003KT 00/M05 A3027 RMK A01 T00041050  RH  068%=      5-min Rain = 0
KGU1 120429Z 28004KT 01/M05 A3027 RMK A01 T00051051  RH  067%=      5-min Rain = 0
KGU1 120430Z 29005KT 00/M05 A3027 RMK A01 T00031050  RH  068%=      5-min Rain = 0
KGU1 120431Z 30008KT 00/M05 A3027 RMK A01 T00011049  RH  070%=      5-min Rain = 0
KGU1 120432Z 30007KT 00/05 A3027 RMK A01 T00-00-49  RH  070%=      5-min Rain = 0
KGU1 120433Z 27006KT 00/05 A3027 RMK A01 T00000-49  RH  070%=      5-min Rain = 0
KGU1 120434Z 26005KT 00/M05 A3027 RMK A01 T00021050  RH  069%=      5-min Rain = 0
KGU1 120435Z 27006KT 01/M05 A3027 RMK A01 T00051051  RH  067%=      5-min Rain = 0
KGU1 120436Z 27005KT 01/M05 A3027 RMK A01 T00051051  RH  067%=      5-min Rain = 0
KGU1 120437Z 27005KT 01/M05 A3027 RMK A01 T00051051  RH  067%=      5-min Rain = 0
KGU1 120438Z 27004KT 00/M05 A3027 RMK A01 T00041051  RH  067%=      5-min Rain = 0
KGU1 120439Z 26005KT 00/M05 A3027 RMK A01 T00041051  RH  067%=      5-min Rain = 0
KGU1 120440Z 27005KT 00/M05 A3027 RMK A01 T00041051  RH  068%=      5-min Rain = 0
KGU1 120441Z 28007KT 00/M05 A3027 RMK A01 T00031051  RH  068%=      5-min Rain = 0
KGU1 120442Z 28008KT 00/M05 A3027 RMK A01 T00021050  RH  069%=      5-min Rain = 0
KGU1 120443Z 27007KT 00/05 A3027 RMK A01 T00000-50  RH  070%=      5-min Rain = 0
KGU1 120444Z 27008KT 00/05 A3027 RMK A01 T00-00-50  RH  070%=      5-min Rain = 0
KGU1 120445Z 28008KT M00/M05 A3027 RMK A01 T10011050  RH  070%=      5-min Rain = 0
KGU1 120446Z 28007KT M00/M05 A3027 RMK A01 T10011050  RH  070%=      5-min Rain = 0
KGU1 120447Z 27006KT M00/M05 A3027 RMK A01 T10011051  RH  070%=      5-min Rain = 0
KGU1 120448Z 26006KT 00/05 A3027 RMK A01 T00-00-50  RH  070%=      5-min Rain = 0
KGU1 120449Z 26007KT 00/05 A3027 RMK A01 T00000-49  RH  070%=      5-min Rain = 0
KGU1 120450Z 27007KT 00/M05 A3027 RMK A01 T00011049  RH  070%=      5-min Rain = 0
KGU1 120451Z 28007KT 00/M05 A3027 RMK A01 T00011050  RH  070%=      5-min Rain = 0
KGU1 120452Z 28007KT 00/M05 A3027 RMK A01 T00011050  RH  069%=      5-min Rain = 0
KGU1 120453Z 28007KT 00/05 A3027 RMK A01 T00-00-50  RH  070%=      5-min Rain = 0
KGU1 120454Z 29008KT M00/M05 A3027 RMK A01 T10011050  RH  071%=      5-min Rain = 0
KGU1 120455Z 29007KT M00/M05 A3027 RMK A01 T10011049  RH  071%=      5-min Rain = 0
KGU1 120456Z 29007KT 00/05 A3026 RMK A01 T00-00-49  RH  071%=      5-min Rain = 0
KGU1 120457Z 28005KT 00/05 A3026 RMK A01 T00000-49  RH  070%=      5-min Rain = 0
KGU1 120458Z 29009KT 00/05 A3027 RMK A01 T00000-48  RH  071%=      5-min Rain = 0
KGU1 120459Z 30010KT 00/M05 A3027 RMK A01 T00021047  RH  070%=      5-min Rain = 0
KGU1 120500Z 30008KT 01/M05 A3027 RMK A01 T00051048  RH  069%=      5-min Rain = 0
KGU1 120501Z 29008KT 01/M05 A3027 RMK A01 T00051047  RH  069%=      5-min Rain = 0
KGU1 120502Z 24005KT 01/M05 A3027 RMK A01 T00051047  RH  069%=      5-min Rain = 0
KGU1 120503Z 25003KT 01/M05 A3027 RMK A01 T00081050  RH  066%=      5-min Rain = 0
KGU1 120504Z 29005KT 01/M05 A3027 RMK A01 T00101049  RH  066%=      5-min Rain = 0
KGU1 120505Z 28005KT 01/M05 A3026 RMK A01 T00091049  RH  066%=      5-min Rain = 0
KGU1 120506Z 29006KT 01/M05 A3026 RMK A01 T00091048  RH  066%=      5-min Rain = 0
KGU1 120507Z 30005KT 01/M05 A3026 RMK A01 T00081048  RH  067%=      5-min Rain = 0
KGU1 120508Z 30006KT 01/M05 A3026 RMK A01 T00081047  RH  067%=      5-min Rain = 0
KGU1 120509Z 31008KT 01/M05 A3026 RMK A01 T00081048  RH  067%=      5-min Rain = 0
KGU1 120510Z 30007KT 01/M05 A3027 RMK A01 T00091048  RH  066%=      5-min Rain = 0
KGU1 120511Z 30006KT 01/M05 A3027 RMK A01 T00081048  RH  067%=      5-min Rain = 0
KGU1 120512Z 29005KT 01/M05 A3027 RMK A01 T00071048  RH  067%=      5-min Rain = 0
KGU1 120513Z 27003KT 01/M05 A3027 RMK A01 T00071048  RH  068%=      5-min Rain = 0
KGU1 120514Z 26003KT 01/M05 A3027 RMK A01 T00091047  RH  067%=      5-min Rain = 0
KGU1 120515Z 28003KT 01/M05 A3027 RMK A01 T00121046  RH  066%=      5-min Rain = 0
KGU1 120516Z 27003KT 02/M05 A3027 RMK A01 T00151045  RH  065%=      5-min Rain = 0
KGU1 120517Z 29002KT 02/M05 A3027 RMK A01 T00171045  RH  064%=      5-min Rain = 0
KGU1 120518Z 30001KT 02/M05 A3027 RMK A01 T00191046  RH  063%=      5-min Rain = 0
KGU1 120519Z 31002KT 02/M05 A3027 RMK A01 T00191046  RH  063%=      5-min Rain = 0
KGU1 120520Z 32003KT 02/M05 A3027 RMK A01 T00181047  RH  062%=      5-min Rain = 0
KGU1 120521Z 34003KT 02/M05 A3027 RMK A01 T00171048  RH  063%=      5-min Rain = 0
KGU1 120522Z 33003KT 02/M05 A3027 RMK A01 T00151048  RH  063%=      5-min Rain = 0
KGU1 120523Z 34002KT 01/M05 A3026 RMK A01 T00131048  RH  064%=      5-min Rain = 0
KGU1 120524Z 35001KT 01/M05 A3026 RMK A01 T00121047  RH  065%=      5-min Rain = 0
KGU1 120525Z 33002KT 01/M05 A3027 RMK A01 T00111047  RH  066%=      5-min Rain = 0
KGU1 120526Z 31002KT 01/M05 A3027 RMK A01 T00111045  RH  067%=      5-min Rain = 0
KGU1 120527Z 33001KT 01/M05 A3027 RMK A01 T00111045  RH  067%=      5-min Rain = 0
KGU1 120528Z 29002KT 01/M05 A3027 RMK A01 T00111045  RH  066%=      5-min Rain = 0
KGU1 120529Z 22003KT 01/M04 A3027 RMK A01 T00121044  RH  067%=      5-min Rain = 0
KGU1 120530Z 23003KT 01/M04 A3027 RMK A01 T00141043  RH  067%=      5-min Rain = 0
KGU1 120531Z 23003KT 02/M04 A3027 RMK A01 T00161043  RH  066%=      5-min Rain = 0
KGU1 120532Z 21005KT 02/M04 A3027 RMK A01 T00181044  RH  064%=      5-min Rain = 0
KGU1 120533Z 21006KT 02/M04 A3027 RMK A01 T00201044  RH  063%=      5-min Rain = 0
KGU1 120534Z 21007KT 02/M05 A3027 RMK A01 T00231045  RH  062%=      5-min Rain = 0
KGU1 120535Z 20008KT 03/M05 A3027 RMK A01 T00261045  RH  060%=      5-min Rain = 0
KGU1 120536Z 20007KT 03/M04 A3027 RMK A01 T00281044  RH  059%=      5-min Rain = 0
KGU1 120537Z 22006KT 03/M04 A3027 RMK A01 T00291044  RH  059%=      5-min Rain = 0
KGU1 120538Z 21005KT 03/M04 A3027 RMK A01 T00291044  RH  059%=      5-min Rain = 0
KGU1 120539Z 21006KT 03/M04 A3027 RMK A01 T00291044  RH  059%=      5-min Rain = 0
KGU1 120540Z 22004KT 03/M04 A3027 RMK A01 T00291044  RH  059%=      5-min Rain = 0
KGU1 120541Z 23005KT 03/M05 A3027 RMK A01 T00291045  RH  059%=      5-min Rain = 0
KGU1 120542Z 23005KT 03/M04 A3027 RMK A01 T00291044  RH  059%=      5-min Rain = 0
KGU1 120543Z 24005KT 03/M05 A3027 RMK A01 T00291045  RH  059%=      5-min Rain = 0
KGU1 120544Z 24005KT 03/M05 A3027 RMK A01 T00291045  RH  059%=      5-min Rain = 0
KGU1 120545Z 24005KT 03/M04 A3027 RMK A01 T00291044  RH  059%=      5-min Rain = 0
KGU1 120546Z 26004KT 03/M04 A3027 RMK A01 T00281044  RH  060%=      5-min Rain = 0
KGU1 120547Z 25005KT 03/M05 A3027 RMK A01 T00261045  RH  060%=      5-min Rain = 0
KGU1 120548Z 23005KT 03/M04 A3027 RMK A01 T00261044  RH  061%=      5-min Rain = 0
KGU1 120549Z 22006KT 03/M04 A3027 RMK A01 T00261044  RH  061%=      5-min Rain = 0
KGU1 120550Z 23005KT 03/M04 A3027 RMK A01 T00271044  RH  060%=      5-min Rain = 0
KGU1 120551Z 22007KT 03/M04 A3027 RMK A01 T00281044  RH  060%=      5-min Rain = 0
KGU1 120552Z 22008KT 03/M04 A3027 RMK A01 T00281044  RH  059%=      5-min Rain = 0
KGU1 120553Z 22007KT 03/M04 A3027 RMK A01 T00301044  RH  059%=      5-min Rain = 0
KGU1 120554Z 23007KT 03/M05 A3026 RMK A01 T00311045  RH  058%=      5-min Rain = 0
KGU1 120555Z 23005KT 03/M04 A3026 RMK A01 T00321044  RH  058%=      5-min Rain = 0
KGU1 120556Z 23005KT 03/M04 A3026 RMK A01 T00311044  RH  058%=      5-min Rain = 0
KGU1 120557Z 22004KT 03/M04 A3026 RMK A01 T00311044  RH  058%=      5-min Rain = 0
KGU1 120558Z 21008KT 03/M05 A3026 RMK A01 T00301045  RH  059%=      5-min Rain = 0
KGU1 120559Z 21007KT 03/M04 A3026 RMK A01 T00301044  RH  059%=      5-min Rain = 0

Page generated in 0.0782 seconds.